<?xml version="1.0" encoding="UTF-8" standalone="no" ?>
<gpx xmlns="http://www.topografix.com/GPX/1/1" xmlns:xsi="http://www.w3.org/2001/XMLSchema-instance" xsi:schemaLocation="http://www.topografix.com/GPX/1/1 http://www.topografix.com/GPX/1/1/gpx.xsd" version="1.1" creator="VisuGPX - https://www.visugpx.com">
  <metadata>
    <name>12603518-Ecromagny 21 02 06 E V4</name>
  </metadata>
  <trk>
    <name><![CDATA[12603518-Ecromagny 21 02 06 E V4]]></name>
    <trkseg>
      <trkpt lat="47.79228" lon="6.56213">
        <ele>457</ele>
        <time>2021-02-26T20:45:30Z</time>
      </trkpt>
      <trkpt lat="47.79254" lon="6.56302">
        <ele>457</ele>
        <time>2021-02-26T20:45:45Z</time>
      </trkpt>
      <trkpt lat="47.79352" lon="6.5632">
        <ele>453</ele>
        <time>2021-02-26T20:46:08Z</time>
      </trkpt>
      <trkpt lat="47.79428" lon="6.56413">
        <ele>451</ele>
        <time>2021-02-26T20:46:31Z</time>
      </trkpt>
      <trkpt lat="47.79423" lon="6.56488">
        <ele>449</ele>
        <time>2021-02-26T20:46:43Z</time>
      </trkpt>
      <trkpt lat="47.79409" lon="6.56522">
        <ele>448</ele>
        <time>2021-02-26T20:46:49Z</time>
      </trkpt>
      <trkpt lat="47.79407" lon="6.5655">
        <ele>447</ele>
        <time>2021-02-26T20:46:54Z</time>
      </trkpt>
      <trkpt lat="47.79418" lon="6.56592">
        <ele>445</ele>
        <time>2021-02-26T20:47:01Z</time>
      </trkpt>
      <trkpt lat="47.7945" lon="6.56648">
        <ele>443</ele>
        <time>2021-02-26T20:47:12Z</time>
      </trkpt>
      <trkpt lat="47.79507" lon="6.56711">
        <ele>439</ele>
        <time>2021-02-26T20:47:29Z</time>
      </trkpt>
      <trkpt lat="47.79582" lon="6.56722">
        <ele>439</ele>
        <time>2021-02-26T20:47:47Z</time>
      </trkpt>
      <trkpt lat="47.79615" lon="6.56724">
        <ele>438</ele>
        <time>2021-02-26T20:47:54Z</time>
      </trkpt>
      <trkpt lat="47.79675" lon="6.568">
        <ele>432</ele>
        <time>2021-02-26T20:48:13Z</time>
      </trkpt>
      <trkpt lat="47.7969" lon="6.5686">
        <ele>429</ele>
        <time>2021-02-26T20:48:23Z</time>
      </trkpt>
      <trkpt lat="47.79718" lon="6.56854">
        <ele>430</ele>
        <time>2021-02-26T20:48:29Z</time>
      </trkpt>
      <trkpt lat="47.79735" lon="6.56833">
        <ele>431</ele>
        <time>2021-02-26T20:48:34Z</time>
      </trkpt>
      <trkpt lat="47.79751" lon="6.56818">
        <ele>431</ele>
        <time>2021-02-26T20:48:39Z</time>
      </trkpt>
      <trkpt lat="47.79795" lon="6.56814">
        <ele>431</ele>
        <time>2021-02-26T20:48:49Z</time>
      </trkpt>
      <trkpt lat="47.79832" lon="6.56757">
        <ele>434</ele>
        <time>2021-02-26T20:49:02Z</time>
      </trkpt>
      <trkpt lat="47.79895" lon="6.56693">
        <ele>434</ele>
        <time>2021-02-26T20:49:19Z</time>
      </trkpt>
      <trkpt lat="47.80013" lon="6.56593">
        <ele>444</ele>
        <time>2021-02-26T20:49:51Z</time>
      </trkpt>
      <trkpt lat="47.8004" lon="6.56517">
        <ele>446</ele>
        <time>2021-02-26T20:50:05Z</time>
      </trkpt>
      <trkpt lat="47.80065" lon="6.56484">
        <ele>446</ele>
        <time>2021-02-26T20:50:12Z</time>
      </trkpt>
      <trkpt lat="47.80084" lon="6.56466">
        <ele>446</ele>
        <time>2021-02-26T20:50:18Z</time>
      </trkpt>
      <trkpt lat="47.80166" lon="6.56424">
        <ele>449</ele>
        <time>2021-02-26T20:50:38Z</time>
      </trkpt>
      <trkpt lat="47.8019" lon="6.5639">
        <ele>448</ele>
        <time>2021-02-26T20:50:46Z</time>
      </trkpt>
      <trkpt lat="47.80202" lon="6.56355">
        <ele>447</ele>
        <time>2021-02-26T20:50:52Z</time>
      </trkpt>
      <trkpt lat="47.80179" lon="6.56285">
        <ele>445</ele>
        <time>2021-02-26T20:51:04Z</time>
      </trkpt>
      <trkpt lat="47.80245" lon="6.56285">
        <ele>447</ele>
        <time>2021-02-26T20:51:19Z</time>
      </trkpt>
      <trkpt lat="47.80298" lon="6.56238">
        <ele>450</ele>
        <time>2021-02-26T20:51:34Z</time>
      </trkpt>
      <trkpt lat="47.80322" lon="6.56221">
        <ele>452</ele>
        <time>2021-02-26T20:51:40Z</time>
      </trkpt>
      <trkpt lat="47.80349" lon="6.56227">
        <ele>453</ele>
        <time>2021-02-26T20:51:46Z</time>
      </trkpt>
      <trkpt lat="47.80401" lon="6.56274">
        <ele>455</ele>
        <time>2021-02-26T20:52:01Z</time>
      </trkpt>
      <trkpt lat="47.80428" lon="6.56317">
        <ele>456</ele>
        <time>2021-02-26T20:52:10Z</time>
      </trkpt>
      <trkpt lat="47.80478" lon="6.56437">
        <ele>458</ele>
        <time>2021-02-26T20:52:32Z</time>
      </trkpt>
      <trkpt lat="47.80477" lon="6.5654">
        <ele>453</ele>
        <time>2021-02-26T20:52:48Z</time>
      </trkpt>
      <trkpt lat="47.80458" lon="6.56641">
        <ele>447</ele>
        <time>2021-02-26T20:53:05Z</time>
      </trkpt>
      <trkpt lat="47.80453" lon="6.56745">
        <ele>444</ele>
        <time>2021-02-26T20:53:21Z</time>
      </trkpt>
      <trkpt lat="47.80517" lon="6.56785">
        <ele>442</ele>
        <time>2021-02-26T20:53:37Z</time>
      </trkpt>
      <trkpt lat="47.80569" lon="6.56836">
        <ele>445</ele>
        <time>2021-02-26T20:53:52Z</time>
      </trkpt>
      <trkpt lat="47.80612" lon="6.56868">
        <ele>448</ele>
        <time>2021-02-26T20:54:03Z</time>
      </trkpt>
      <trkpt lat="47.80584" lon="6.56932">
        <ele>441</ele>
        <time>2021-02-26T20:54:15Z</time>
      </trkpt>
      <trkpt lat="47.80603" lon="6.57023">
        <ele>445</ele>
        <time>2021-02-26T20:54:30Z</time>
      </trkpt>
      <trkpt lat="47.80624" lon="6.5707">
        <ele>445</ele>
        <time>2021-02-26T20:54:39Z</time>
      </trkpt>
      <trkpt lat="47.80593" lon="6.57178">
        <ele>441</ele>
        <time>2021-02-26T20:54:57Z</time>
      </trkpt>
      <trkpt lat="47.8059" lon="6.57214">
        <ele>441</ele>
        <time>2021-02-26T20:55:03Z</time>
      </trkpt>
      <trkpt lat="47.80615" lon="6.5733">
        <ele>443</ele>
        <time>2021-02-26T20:55:22Z</time>
      </trkpt>
      <trkpt lat="47.80611" lon="6.5744">
        <ele>445</ele>
        <time>2021-02-26T20:55:39Z</time>
      </trkpt>
      <trkpt lat="47.80587" lon="6.57507">
        <ele>444</ele>
        <time>2021-02-26T20:55:51Z</time>
      </trkpt>
      <trkpt lat="47.80562" lon="6.57553">
        <ele>443</ele>
        <time>2021-02-26T20:56:00Z</time>
      </trkpt>
      <trkpt lat="47.80548" lon="6.57588">
        <ele>442</ele>
        <time>2021-02-26T20:56:07Z</time>
      </trkpt>
      <trkpt lat="47.80595" lon="6.57701">
        <ele>449</ele>
        <time>2021-02-26T20:56:28Z</time>
      </trkpt>
      <trkpt lat="47.80579" lon="6.57775">
        <ele>449</ele>
        <time>2021-02-26T20:56:40Z</time>
      </trkpt>
      <trkpt lat="47.80566" lon="6.57867">
        <ele>446</ele>
        <time>2021-02-26T20:56:55Z</time>
      </trkpt>
      <trkpt lat="47.8055" lon="6.57926">
        <ele>445</ele>
        <time>2021-02-26T20:57:05Z</time>
      </trkpt>
      <trkpt lat="47.80557" lon="6.5798">
        <ele>446</ele>
        <time>2021-02-26T20:57:13Z</time>
      </trkpt>
      <trkpt lat="47.80572" lon="6.58016">
        <ele>448</ele>
        <time>2021-02-26T20:57:20Z</time>
      </trkpt>
      <trkpt lat="47.80586" lon="6.58035">
        <ele>449</ele>
        <time>2021-02-26T20:57:24Z</time>
      </trkpt>
      <trkpt lat="47.8061" lon="6.58054">
        <ele>450</ele>
        <time>2021-02-26T20:57:31Z</time>
      </trkpt>
      <trkpt lat="47.80658" lon="6.58052">
        <ele>454</ele>
        <time>2021-02-26T20:57:42Z</time>
      </trkpt>
      <trkpt lat="47.80712" lon="6.58159">
        <ele>453</ele>
        <time>2021-02-26T20:58:03Z</time>
      </trkpt>
      <trkpt lat="47.80747" lon="6.5819">
        <ele>454</ele>
        <time>2021-02-26T20:58:12Z</time>
      </trkpt>
      <trkpt lat="47.80739" lon="6.58222">
        <ele>453</ele>
        <time>2021-02-26T20:58:18Z</time>
      </trkpt>
      <trkpt lat="47.80763" lon="6.58261">
        <ele>454</ele>
        <time>2021-02-26T20:58:26Z</time>
      </trkpt>
      <trkpt lat="47.80768" lon="6.58295">
        <ele>453</ele>
        <time>2021-02-26T20:58:31Z</time>
      </trkpt>
      <trkpt lat="47.8078" lon="6.58317">
        <ele>453</ele>
        <time>2021-02-26T20:58:36Z</time>
      </trkpt>
      <trkpt lat="47.80794" lon="6.58358">
        <ele>453</ele>
        <time>2021-02-26T20:58:43Z</time>
      </trkpt>
      <trkpt lat="47.80847" lon="6.58428">
        <ele>456</ele>
        <time>2021-02-26T20:59:00Z</time>
      </trkpt>
      <trkpt lat="47.80868" lon="6.58444">
        <ele>456</ele>
        <time>2021-02-26T20:59:05Z</time>
      </trkpt>
      <trkpt lat="47.80916" lon="6.58429">
        <ele>459</ele>
        <time>2021-02-26T20:59:17Z</time>
      </trkpt>
      <trkpt lat="47.80931" lon="6.5841">
        <ele>460</ele>
        <time>2021-02-26T20:59:21Z</time>
      </trkpt>
      <trkpt lat="47.80938" lon="6.58393">
        <ele>460</ele>
        <time>2021-02-26T20:59:24Z</time>
      </trkpt>
      <trkpt lat="47.80957" lon="6.58394">
        <ele>462</ele>
        <time>2021-02-26T20:59:29Z</time>
      </trkpt>
      <trkpt lat="47.80987" lon="6.58368">
        <ele>464</ele>
        <time>2021-02-26T20:59:37Z</time>
      </trkpt>
      <trkpt lat="47.81017" lon="6.58362">
        <ele>466</ele>
        <time>2021-02-26T20:59:44Z</time>
      </trkpt>
      <trkpt lat="47.81082" lon="6.58358">
        <ele>469</ele>
        <time>2021-02-26T20:59:59Z</time>
      </trkpt>
      <trkpt lat="47.811" lon="6.58345">
        <ele>469</ele>
        <time>2021-02-26T21:00:04Z</time>
      </trkpt>
      <trkpt lat="47.81179" lon="6.58277">
        <ele>470</ele>
        <time>2021-02-26T21:00:25Z</time>
      </trkpt>
      <trkpt lat="47.81217" lon="6.58232">
        <ele>471</ele>
        <time>2021-02-26T21:00:37Z</time>
      </trkpt>
      <trkpt lat="47.81283" lon="6.58117">
        <ele>469</ele>
        <time>2021-02-26T21:01:00Z</time>
      </trkpt>
      <trkpt lat="47.81345" lon="6.58097">
        <ele>469</ele>
        <time>2021-02-26T21:01:15Z</time>
      </trkpt>
      <trkpt lat="47.81381" lon="6.58063">
        <ele>474</ele>
        <time>2021-02-26T21:01:25Z</time>
      </trkpt>
      <trkpt lat="47.81392" lon="6.58024">
        <ele>476</ele>
        <time>2021-02-26T21:01:32Z</time>
      </trkpt>
      <trkpt lat="47.81402" lon="6.57927">
        <ele>478</ele>
        <time>2021-02-26T21:01:47Z</time>
      </trkpt>
      <trkpt lat="47.81411" lon="6.57886">
        <ele>479</ele>
        <time>2021-02-26T21:01:54Z</time>
      </trkpt>
      <trkpt lat="47.81435" lon="6.57838">
        <ele>482</ele>
        <time>2021-02-26T21:02:03Z</time>
      </trkpt>
      <trkpt lat="47.81463" lon="6.57804">
        <ele>485</ele>
        <time>2021-02-26T21:02:12Z</time>
      </trkpt>
      <trkpt lat="47.81467" lon="6.57839">
        <ele>486</ele>
        <time>2021-02-26T21:02:17Z</time>
      </trkpt>
      <trkpt lat="47.81479" lon="6.58057">
        <ele>483</ele>
        <time>2021-02-26T21:02:51Z</time>
      </trkpt>
      <trkpt lat="47.81505" lon="6.58149">
        <ele>480</ele>
        <time>2021-02-26T21:03:07Z</time>
      </trkpt>
      <trkpt lat="47.81528" lon="6.5821">
        <ele>475</ele>
        <time>2021-02-26T21:03:18Z</time>
      </trkpt>
      <trkpt lat="47.81521" lon="6.58255">
        <ele>472</ele>
        <time>2021-02-26T21:03:25Z</time>
      </trkpt>
      <trkpt lat="47.81522" lon="6.58309">
        <ele>471</ele>
        <time>2021-02-26T21:03:34Z</time>
      </trkpt>
      <trkpt lat="47.81532" lon="6.58339">
        <ele>470</ele>
        <time>2021-02-26T21:03:39Z</time>
      </trkpt>
      <trkpt lat="47.81538" lon="6.58396">
        <ele>470</ele>
        <time>2021-02-26T21:03:48Z</time>
      </trkpt>
      <trkpt lat="47.81532" lon="6.58429">
        <ele>470</ele>
        <time>2021-02-26T21:03:53Z</time>
      </trkpt>
      <trkpt lat="47.81484" lon="6.58417">
        <ele>470</ele>
        <time>2021-02-26T21:04:05Z</time>
      </trkpt>
      <trkpt lat="47.81463" lon="6.58429">
        <ele>470</ele>
        <time>2021-02-26T21:04:10Z</time>
      </trkpt>
      <trkpt lat="47.81435" lon="6.58475">
        <ele>470</ele>
        <time>2021-02-26T21:04:20Z</time>
      </trkpt>
      <trkpt lat="47.8141" lon="6.58506">
        <ele>470</ele>
        <time>2021-02-26T21:04:27Z</time>
      </trkpt>
      <trkpt lat="47.81388" lon="6.58552">
        <ele>469</ele>
        <time>2021-02-26T21:04:36Z</time>
      </trkpt>
      <trkpt lat="47.81305" lon="6.58651">
        <ele>469</ele>
        <time>2021-02-26T21:05:01Z</time>
      </trkpt>
      <trkpt lat="47.813" lon="6.58687">
        <ele>471</ele>
        <time>2021-02-26T21:05:07Z</time>
      </trkpt>
      <trkpt lat="47.81276" lon="6.58692">
        <ele>472</ele>
        <time>2021-02-26T21:05:13Z</time>
      </trkpt>
      <trkpt lat="47.81258" lon="6.58706">
        <ele>473</ele>
        <time>2021-02-26T21:05:17Z</time>
      </trkpt>
      <trkpt lat="47.81247" lon="6.58719">
        <ele>473</ele>
        <time>2021-02-26T21:05:21Z</time>
      </trkpt>
      <trkpt lat="47.81218" lon="6.58827">
        <ele>470</ele>
        <time>2021-02-26T21:05:39Z</time>
      </trkpt>
      <trkpt lat="47.812" lon="6.58861">
        <ele>470</ele>
        <time>2021-02-26T21:05:46Z</time>
      </trkpt>
      <trkpt lat="47.81196" lon="6.58934">
        <ele>468</ele>
        <time>2021-02-26T21:05:57Z</time>
      </trkpt>
      <trkpt lat="47.8117" lon="6.59044">
        <ele>466</ele>
        <time>2021-02-26T21:06:15Z</time>
      </trkpt>
      <trkpt lat="47.81071" lon="6.59157">
        <ele>464</ele>
        <time>2021-02-26T21:06:45Z</time>
      </trkpt>
      <trkpt lat="47.81061" lon="6.59226">
        <ele>467</ele>
        <time>2021-02-26T21:06:56Z</time>
      </trkpt>
      <trkpt lat="47.81062" lon="6.59258">
        <ele>468</ele>
        <time>2021-02-26T21:07:01Z</time>
      </trkpt>
      <trkpt lat="47.80982" lon="6.59265">
        <ele>464</ele>
        <time>2021-02-26T21:07:19Z</time>
      </trkpt>
      <trkpt lat="47.80936" lon="6.59233">
        <ele>459</ele>
        <time>2021-02-26T21:07:31Z</time>
      </trkpt>
      <trkpt lat="47.80883" lon="6.59213">
        <ele>454</ele>
        <time>2021-02-26T21:07:44Z</time>
      </trkpt>
      <trkpt lat="47.80821" lon="6.59155">
        <ele>451</ele>
        <time>2021-02-26T21:08:01Z</time>
      </trkpt>
      <trkpt lat="47.80761" lon="6.59133">
        <ele>450</ele>
        <time>2021-02-26T21:08:15Z</time>
      </trkpt>
      <trkpt lat="47.8068" lon="6.59022">
        <ele>449</ele>
        <time>2021-02-26T21:08:41Z</time>
      </trkpt>
      <trkpt lat="47.80637" lon="6.59033">
        <ele>449</ele>
        <time>2021-02-26T21:08:51Z</time>
      </trkpt>
      <trkpt lat="47.8062" lon="6.59114">
        <ele>452</ele>
        <time>2021-02-26T21:09:05Z</time>
      </trkpt>
      <trkpt lat="47.80597" lon="6.59157">
        <ele>456</ele>
        <time>2021-02-26T21:09:13Z</time>
      </trkpt>
      <trkpt lat="47.80584" lon="6.59206">
        <ele>458</ele>
        <time>2021-02-26T21:09:22Z</time>
      </trkpt>
      <trkpt lat="47.80581" lon="6.59265">
        <ele>459</ele>
        <time>2021-02-26T21:09:31Z</time>
      </trkpt>
      <trkpt lat="47.80603" lon="6.59356">
        <ele>459</ele>
        <time>2021-02-26T21:09:46Z</time>
      </trkpt>
      <trkpt lat="47.806" lon="6.59438">
        <ele>460</ele>
        <time>2021-02-26T21:09:59Z</time>
      </trkpt>
      <trkpt lat="47.80622" lon="6.59523">
        <ele>459</ele>
        <time>2021-02-26T21:10:13Z</time>
      </trkpt>
      <trkpt lat="47.80633" lon="6.59646">
        <ele>462</ele>
        <time>2021-02-26T21:10:33Z</time>
      </trkpt>
      <trkpt lat="47.80639" lon="6.59842">
        <ele>473</ele>
        <time>2021-02-26T21:11:03Z</time>
      </trkpt>
      <trkpt lat="47.80659" lon="6.59873">
        <ele>475</ele>
        <time>2021-02-26T21:11:10Z</time>
      </trkpt>
      <trkpt lat="47.80711" lon="6.59759">
        <ele>469</ele>
        <time>2021-02-26T21:11:32Z</time>
      </trkpt>
      <trkpt lat="47.80726" lon="6.5974">
        <ele>467</ele>
        <time>2021-02-26T21:11:36Z</time>
      </trkpt>
      <trkpt lat="47.80796" lon="6.59819">
        <ele>477</ele>
        <time>2021-02-26T21:11:57Z</time>
      </trkpt>
      <trkpt lat="47.80829" lon="6.59845">
        <ele>479</ele>
        <time>2021-02-26T21:12:06Z</time>
      </trkpt>
      <trkpt lat="47.8087" lon="6.59829">
        <ele>476</ele>
        <time>2021-02-26T21:12:16Z</time>
      </trkpt>
      <trkpt lat="47.80888" lon="6.5985">
        <ele>477</ele>
        <time>2021-02-26T21:12:21Z</time>
      </trkpt>
      <trkpt lat="47.80896" lon="6.59913">
        <ele>480</ele>
        <time>2021-02-26T21:12:31Z</time>
      </trkpt>
      <trkpt lat="47.8103" lon="6.60193">
        <ele>489</ele>
        <time>2021-02-26T21:13:25Z</time>
      </trkpt>
      <trkpt lat="47.81047" lon="6.60262">
        <ele>491</ele>
        <time>2021-02-26T21:13:36Z</time>
      </trkpt>
      <trkpt lat="47.81054" lon="6.60241">
        <ele>490</ele>
        <time>2021-02-26T21:13:40Z</time>
      </trkpt>
      <trkpt lat="47.81043" lon="6.60058">
        <ele>485</ele>
        <time>2021-02-26T21:14:09Z</time>
      </trkpt>
      <trkpt lat="47.81053" lon="6.59982">
        <ele>484</ele>
        <time>2021-02-26T21:14:21Z</time>
      </trkpt>
      <trkpt lat="47.81055" lon="6.5992">
        <ele>483</ele>
        <time>2021-02-26T21:14:31Z</time>
      </trkpt>
      <trkpt lat="47.81075" lon="6.59903">
        <ele>483</ele>
        <time>2021-02-26T21:14:36Z</time>
      </trkpt>
      <trkpt lat="47.81124" lon="6.59903">
        <ele>484</ele>
        <time>2021-02-26T21:14:48Z</time>
      </trkpt>
      <trkpt lat="47.81145" lon="6.59851">
        <ele>485</ele>
        <time>2021-02-26T21:14:57Z</time>
      </trkpt>
      <trkpt lat="47.81153" lon="6.59804">
        <ele>487</ele>
        <time>2021-02-26T21:15:05Z</time>
      </trkpt>
      <trkpt lat="47.81139" lon="6.59739">
        <ele>486</ele>
        <time>2021-02-26T21:15:15Z</time>
      </trkpt>
      <trkpt lat="47.81146" lon="6.59685">
        <ele>485</ele>
        <time>2021-02-26T21:15:24Z</time>
      </trkpt>
      <trkpt lat="47.81138" lon="6.59648">
        <ele>483</ele>
        <time>2021-02-26T21:15:30Z</time>
      </trkpt>
      <trkpt lat="47.81077" lon="6.59557">
        <ele>475</ele>
        <time>2021-02-26T21:15:50Z</time>
      </trkpt>
      <trkpt lat="47.81068" lon="6.5949">
        <ele>472</ele>
        <time>2021-02-26T21:16:01Z</time>
      </trkpt>
      <trkpt lat="47.81085" lon="6.59376">
        <ele>471</ele>
        <time>2021-02-26T21:16:19Z</time>
      </trkpt>
      <trkpt lat="47.8111" lon="6.59321">
        <ele>469</ele>
        <time>2021-02-26T21:16:30Z</time>
      </trkpt>
      <trkpt lat="47.81137" lon="6.59343">
        <ele>468</ele>
        <time>2021-02-26T21:16:37Z</time>
      </trkpt>
      <trkpt lat="47.81235" lon="6.59492">
        <ele>466</ele>
        <time>2021-02-26T21:17:10Z</time>
      </trkpt>
      <trkpt lat="47.81278" lon="6.59698">
        <ele>473</ele>
        <time>2021-02-26T21:17:43Z</time>
      </trkpt>
      <trkpt lat="47.81343" lon="6.598">
        <ele>466</ele>
        <time>2021-02-26T21:18:05Z</time>
      </trkpt>
      <trkpt lat="47.81378" lon="6.59937">
        <ele>465</ele>
        <time>2021-02-26T21:18:28Z</time>
      </trkpt>
      <trkpt lat="47.81402" lon="6.59987">
        <ele>464</ele>
        <time>2021-02-26T21:18:38Z</time>
      </trkpt>
      <trkpt lat="47.81427" lon="6.60121">
        <ele>468</ele>
        <time>2021-02-26T21:19:00Z</time>
      </trkpt>
      <trkpt lat="47.81442" lon="6.60236">
        <ele>472</ele>
        <time>2021-02-26T21:19:18Z</time>
      </trkpt>
      <trkpt lat="47.81453" lon="6.60277">
        <ele>474</ele>
        <time>2021-02-26T21:19:25Z</time>
      </trkpt>
      <trkpt lat="47.8147" lon="6.60293">
        <ele>473</ele>
        <time>2021-02-26T21:19:30Z</time>
      </trkpt>
      <trkpt lat="47.8151" lon="6.60299">
        <ele>468</ele>
        <time>2021-02-26T21:19:39Z</time>
      </trkpt>
      <trkpt lat="47.81546" lon="6.60316">
        <ele>466</ele>
        <time>2021-02-26T21:19:48Z</time>
      </trkpt>
      <trkpt lat="47.81566" lon="6.60391">
        <ele>466</ele>
        <time>2021-02-26T21:20:01Z</time>
      </trkpt>
      <trkpt lat="47.81595" lon="6.60433">
        <ele>464</ele>
        <time>2021-02-26T21:20:10Z</time>
      </trkpt>
      <trkpt lat="47.81629" lon="6.60463">
        <ele>464</ele>
        <time>2021-02-26T21:20:19Z</time>
      </trkpt>
      <trkpt lat="47.81642" lon="6.60434">
        <ele>464</ele>
        <time>2021-02-26T21:20:25Z</time>
      </trkpt>
      <trkpt lat="47.81665" lon="6.60357">
        <ele>464</ele>
        <time>2021-02-26T21:20:38Z</time>
      </trkpt>
      <trkpt lat="47.81684" lon="6.60334">
        <ele>465</ele>
        <time>2021-02-26T21:20:44Z</time>
      </trkpt>
      <trkpt lat="47.81746" lon="6.60282">
        <ele>471</ele>
        <time>2021-02-26T21:21:00Z</time>
      </trkpt>
      <trkpt lat="47.81731" lon="6.60199">
        <ele>474</ele>
        <time>2021-02-26T21:21:14Z</time>
      </trkpt>
      <trkpt lat="47.81737" lon="6.60151">
        <ele>477</ele>
        <time>2021-02-26T21:21:22Z</time>
      </trkpt>
      <trkpt lat="47.81763" lon="6.60091">
        <ele>483</ele>
        <time>2021-02-26T21:21:33Z</time>
      </trkpt>
      <trkpt lat="47.81755" lon="6.60052">
        <ele>480</ele>
        <time>2021-02-26T21:21:39Z</time>
      </trkpt>
      <trkpt lat="47.81755" lon="6.59994">
        <ele>480</ele>
        <time>2021-02-26T21:21:48Z</time>
      </trkpt>
      <trkpt lat="47.81783" lon="6.59859">
        <ele>481</ele>
        <time>2021-02-26T21:22:10Z</time>
      </trkpt>
      <trkpt lat="47.81778" lon="6.59834">
        <ele>478</ele>
        <time>2021-02-26T21:22:15Z</time>
      </trkpt>
      <trkpt lat="47.81755" lon="6.59816">
        <ele>474</ele>
        <time>2021-02-26T21:22:21Z</time>
      </trkpt>
      <trkpt lat="47.81683" lon="6.59798">
        <ele>472</ele>
        <time>2021-02-26T21:22:38Z</time>
      </trkpt>
      <trkpt lat="47.81636" lon="6.59755">
        <ele>473</ele>
        <time>2021-02-26T21:22:51Z</time>
      </trkpt>
      <trkpt lat="47.81619" lon="6.59699">
        <ele>473</ele>
        <time>2021-02-26T21:23:00Z</time>
      </trkpt>
      <trkpt lat="47.81604" lon="6.59631">
        <ele>472</ele>
        <time>2021-02-26T21:23:11Z</time>
      </trkpt>
      <trkpt lat="47.81604" lon="6.59512">
        <ele>471</ele>
        <time>2021-02-26T21:23:30Z</time>
      </trkpt>
      <trkpt lat="47.81598" lon="6.59483">
        <ele>471</ele>
        <time>2021-02-26T21:23:35Z</time>
      </trkpt>
      <trkpt lat="47.81588" lon="6.59459">
        <ele>470</ele>
        <time>2021-02-26T21:23:39Z</time>
      </trkpt>
      <trkpt lat="47.81565" lon="6.59447">
        <ele>468</ele>
        <time>2021-02-26T21:23:45Z</time>
      </trkpt>
      <trkpt lat="47.81527" lon="6.59442">
        <ele>466</ele>
        <time>2021-02-26T21:23:54Z</time>
      </trkpt>
      <trkpt lat="47.815" lon="6.59421">
        <ele>466</ele>
        <time>2021-02-26T21:24:01Z</time>
      </trkpt>
      <trkpt lat="47.81495" lon="6.59364">
        <ele>467</ele>
        <time>2021-02-26T21:24:10Z</time>
      </trkpt>
      <trkpt lat="47.81502" lon="6.59311">
        <ele>469</ele>
        <time>2021-02-26T21:24:18Z</time>
      </trkpt>
      <trkpt lat="47.81492" lon="6.59031">
        <ele>472</ele>
        <time>2021-02-26T21:25:02Z</time>
      </trkpt>
      <trkpt lat="47.8152" lon="6.58996">
        <ele>476</ele>
        <time>2021-02-26T21:25:11Z</time>
      </trkpt>
      <trkpt lat="47.81538" lon="6.58883">
        <ele>478</ele>
        <time>2021-02-26T21:25:29Z</time>
      </trkpt>
      <trkpt lat="47.81565" lon="6.58803">
        <ele>483</ele>
        <time>2021-02-26T21:25:43Z</time>
      </trkpt>
      <trkpt lat="47.81557" lon="6.58742">
        <ele>483</ele>
        <time>2021-02-26T21:25:53Z</time>
      </trkpt>
      <trkpt lat="47.81562" lon="6.58643">
        <ele>480</ele>
        <time>2021-02-26T21:26:09Z</time>
      </trkpt>
      <trkpt lat="47.8159" lon="6.58572">
        <ele>478</ele>
        <time>2021-02-26T21:26:21Z</time>
      </trkpt>
      <trkpt lat="47.81611" lon="6.58499">
        <ele>477</ele>
        <time>2021-02-26T21:26:34Z</time>
      </trkpt>
      <trkpt lat="47.81608" lon="6.58438">
        <ele>475</ele>
        <time>2021-02-26T21:26:43Z</time>
      </trkpt>
      <trkpt lat="47.81643" lon="6.58348">
        <ele>477</ele>
        <time>2021-02-26T21:27:00Z</time>
      </trkpt>
      <trkpt lat="47.81697" lon="6.58356">
        <ele>484</ele>
        <time>2021-02-26T21:27:12Z</time>
      </trkpt>
      <trkpt lat="47.81741" lon="6.58437">
        <ele>494</ele>
        <time>2021-02-26T21:27:29Z</time>
      </trkpt>
      <trkpt lat="47.81863" lon="6.5847">
        <ele>501</ele>
        <time>2021-02-26T21:27:58Z</time>
      </trkpt>
      <trkpt lat="47.81896" lon="6.58493">
        <ele>502</ele>
        <time>2021-02-26T21:28:06Z</time>
      </trkpt>
      <trkpt lat="47.81947" lon="6.58551">
        <ele>502</ele>
        <time>2021-02-26T21:28:21Z</time>
      </trkpt>
      <trkpt lat="47.82007" lon="6.58565">
        <ele>496</ele>
        <time>2021-02-26T21:28:35Z</time>
      </trkpt>
      <trkpt lat="47.82062" lon="6.58583">
        <ele>491</ele>
        <time>2021-02-26T21:28:49Z</time>
      </trkpt>
      <trkpt lat="47.82114" lon="6.58644">
        <ele>494</ele>
        <time>2021-02-26T21:29:04Z</time>
      </trkpt>
      <trkpt lat="47.82097" lon="6.58746">
        <ele>504</ele>
        <time>2021-02-26T21:29:21Z</time>
      </trkpt>
      <trkpt lat="47.82088" lon="6.58785">
        <ele>507</ele>
        <time>2021-02-26T21:29:27Z</time>
      </trkpt>
      <trkpt lat="47.82096" lon="6.58829">
        <ele>509</ele>
        <time>2021-02-26T21:29:34Z</time>
      </trkpt>
      <trkpt lat="47.82137" lon="6.58963">
        <ele>517</ele>
        <time>2021-02-26T21:29:57Z</time>
      </trkpt>
      <trkpt lat="47.82154" lon="6.5899">
        <ele>518</ele>
        <time>2021-02-26T21:30:03Z</time>
      </trkpt>
      <trkpt lat="47.82186" lon="6.59024">
        <ele>516</ele>
        <time>2021-02-26T21:30:12Z</time>
      </trkpt>
      <trkpt lat="47.82207" lon="6.58979">
        <ele>513</ele>
        <time>2021-02-26T21:30:21Z</time>
      </trkpt>
      <trkpt lat="47.82246" lon="6.58881">
        <ele>511</ele>
        <time>2021-02-26T21:30:39Z</time>
      </trkpt>
      <trkpt lat="47.82272" lon="6.58862">
        <ele>509</ele>
        <time>2021-02-26T21:30:45Z</time>
      </trkpt>
      <trkpt lat="47.82289" lon="6.58856">
        <ele>509</ele>
        <time>2021-02-26T21:30:50Z</time>
      </trkpt>
      <trkpt lat="47.82296" lon="6.58891">
        <ele>508</ele>
        <time>2021-02-26T21:30:55Z</time>
      </trkpt>
      <trkpt lat="47.82293" lon="6.58894">
        <ele>508</ele>
        <time>2021-02-26T21:30:56Z</time>
      </trkpt>
      <trkpt lat="47.8228" lon="6.58948">
        <ele>508</ele>
        <time>2021-02-26T21:31:05Z</time>
      </trkpt>
      <trkpt lat="47.82282" lon="6.58961">
        <ele>507</ele>
        <time>2021-02-26T21:31:07Z</time>
      </trkpt>
      <trkpt lat="47.82299" lon="6.58992">
        <ele>505</ele>
        <time>2021-02-26T21:31:13Z</time>
      </trkpt>
      <trkpt lat="47.82309" lon="6.59035">
        <ele>504</ele>
        <time>2021-02-26T21:31:21Z</time>
      </trkpt>
      <trkpt lat="47.82322" lon="6.5905">
        <ele>504</ele>
        <time>2021-02-26T21:31:24Z</time>
      </trkpt>
      <trkpt lat="47.82333" lon="6.59056">
        <ele>503</ele>
        <time>2021-02-26T21:31:27Z</time>
      </trkpt>
      <trkpt lat="47.8235" lon="6.59052">
        <ele>504</ele>
        <time>2021-02-26T21:31:31Z</time>
      </trkpt>
      <trkpt lat="47.82375" lon="6.5901">
        <ele>505</ele>
        <time>2021-02-26T21:31:40Z</time>
      </trkpt>
      <trkpt lat="47.82396" lon="6.59007">
        <ele>506</ele>
        <time>2021-02-26T21:31:45Z</time>
      </trkpt>
      <trkpt lat="47.82421" lon="6.59027">
        <ele>508</ele>
        <time>2021-02-26T21:31:52Z</time>
      </trkpt>
      <trkpt lat="47.82417" lon="6.59093">
        <ele>511</ele>
        <time>2021-02-26T21:32:02Z</time>
      </trkpt>
      <trkpt lat="47.82354" lon="6.59215">
        <ele>515</ele>
        <time>2021-02-26T21:32:26Z</time>
      </trkpt>
      <trkpt lat="47.82337" lon="6.59231">
        <ele>516</ele>
        <time>2021-02-26T21:32:31Z</time>
      </trkpt>
      <trkpt lat="47.82322" lon="6.59258">
        <ele>519</ele>
        <time>2021-02-26T21:32:36Z</time>
      </trkpt>
      <trkpt lat="47.82289" lon="6.59393">
        <ele>524</ele>
        <time>2021-02-26T21:32:59Z</time>
      </trkpt>
      <trkpt lat="47.82264" lon="6.59441">
        <ele>524</ele>
        <time>2021-02-26T21:33:08Z</time>
      </trkpt>
      <trkpt lat="47.82311" lon="6.59557">
        <ele>522</ele>
        <time>2021-02-26T21:33:30Z</time>
      </trkpt>
      <trkpt lat="47.82321" lon="6.59601">
        <ele>523</ele>
        <time>2021-02-26T21:33:37Z</time>
      </trkpt>
      <trkpt lat="47.82314" lon="6.59697">
        <ele>526</ele>
        <time>2021-02-26T21:33:52Z</time>
      </trkpt>
      <trkpt lat="47.82336" lon="6.59782">
        <ele>527</ele>
        <time>2021-02-26T21:34:06Z</time>
      </trkpt>
      <trkpt lat="47.82344" lon="6.59847">
        <ele>526</ele>
        <time>2021-02-26T21:34:17Z</time>
      </trkpt>
      <trkpt lat="47.82344" lon="6.59904">
        <ele>526</ele>
        <time>2021-02-26T21:34:26Z</time>
      </trkpt>
      <trkpt lat="47.82381" lon="6.59952">
        <ele>529</ele>
        <time>2021-02-26T21:34:37Z</time>
      </trkpt>
      <trkpt lat="47.82385" lon="6.60023">
        <ele>530</ele>
        <time>2021-02-26T21:34:48Z</time>
      </trkpt>
      <trkpt lat="47.82396" lon="6.60087">
        <ele>530</ele>
        <time>2021-02-26T21:34:59Z</time>
      </trkpt>
      <trkpt lat="47.82449" lon="6.60136">
        <ele>528</ele>
        <time>2021-02-26T21:35:13Z</time>
      </trkpt>
      <trkpt lat="47.82468" lon="6.60167">
        <ele>527</ele>
        <time>2021-02-26T21:35:20Z</time>
      </trkpt>
      <trkpt lat="47.8249" lon="6.60182">
        <ele>526</ele>
        <time>2021-02-26T21:35:25Z</time>
      </trkpt>
      <trkpt lat="47.82547" lon="6.60175">
        <ele>523</ele>
        <time>2021-02-26T21:35:39Z</time>
      </trkpt>
      <trkpt lat="47.8257" lon="6.60183">
        <ele>522</ele>
        <time>2021-02-26T21:35:44Z</time>
      </trkpt>
      <trkpt lat="47.82625" lon="6.60247">
        <ele>520</ele>
        <time>2021-02-26T21:36:01Z</time>
      </trkpt>
      <trkpt lat="47.82634" lon="6.60271">
        <ele>519</ele>
        <time>2021-02-26T21:36:05Z</time>
      </trkpt>
      <trkpt lat="47.82639" lon="6.60294">
        <ele>519</ele>
        <time>2021-02-26T21:36:09Z</time>
      </trkpt>
      <trkpt lat="47.82641" lon="6.6032">
        <ele>518</ele>
        <time>2021-02-26T21:36:13Z</time>
      </trkpt>
      <trkpt lat="47.82671" lon="6.60403">
        <ele>515</ele>
        <time>2021-02-26T21:36:28Z</time>
      </trkpt>
      <trkpt lat="47.82674" lon="6.60427">
        <ele>513</ele>
        <time>2021-02-26T21:36:31Z</time>
      </trkpt>
      <trkpt lat="47.82672" lon="6.6044">
        <ele>512</ele>
        <time>2021-02-26T21:36:33Z</time>
      </trkpt>
      <trkpt lat="47.82677" lon="6.60464">
        <ele>510</ele>
        <time>2021-02-26T21:36:37Z</time>
      </trkpt>
      <trkpt lat="47.82669" lon="6.60499">
        <ele>507</ele>
        <time>2021-02-26T21:36:43Z</time>
      </trkpt>
      <trkpt lat="47.82659" lon="6.60596">
        <ele>504</ele>
        <time>2021-02-26T21:36:59Z</time>
      </trkpt>
      <trkpt lat="47.82673" lon="6.6065">
        <ele>503</ele>
        <time>2021-02-26T21:37:08Z</time>
      </trkpt>
      <trkpt lat="47.82684" lon="6.60732">
        <ele>497</ele>
        <time>2021-02-26T21:37:21Z</time>
      </trkpt>
      <trkpt lat="47.82688" lon="6.60809">
        <ele>495</ele>
        <time>2021-02-26T21:37:33Z</time>
      </trkpt>
      <trkpt lat="47.82699" lon="6.60857">
        <ele>492</ele>
        <time>2021-02-26T21:37:41Z</time>
      </trkpt>
      <trkpt lat="47.8272" lon="6.60867">
        <ele>491</ele>
        <time>2021-02-26T21:37:46Z</time>
      </trkpt>
      <trkpt lat="47.82756" lon="6.60864">
        <ele>490</ele>
        <time>2021-02-26T21:37:54Z</time>
      </trkpt>
      <trkpt lat="47.82805" lon="6.60812">
        <ele>491</ele>
        <time>2021-02-26T21:38:08Z</time>
      </trkpt>
      <trkpt lat="47.82875" lon="6.60791">
        <ele>488</ele>
        <time>2021-02-26T21:38:25Z</time>
      </trkpt>
      <trkpt lat="47.82919" lon="6.60786">
        <ele>485</ele>
        <time>2021-02-26T21:38:35Z</time>
      </trkpt>
      <trkpt lat="47.82941" lon="6.60775">
        <ele>484</ele>
        <time>2021-02-26T21:38:41Z</time>
      </trkpt>
      <trkpt lat="47.83" lon="6.60772">
        <ele>480</ele>
        <time>2021-02-26T21:38:55Z</time>
      </trkpt>
      <trkpt lat="47.83013" lon="6.60763">
        <ele>475</ele>
        <time>2021-02-26T21:38:58Z</time>
      </trkpt>
      <trkpt lat="47.83011" lon="6.60667">
        <ele>489</ele>
        <time>2021-02-26T21:39:13Z</time>
      </trkpt>
      <trkpt lat="47.83037" lon="6.60629">
        <ele>488</ele>
        <time>2021-02-26T21:39:22Z</time>
      </trkpt>
      <trkpt lat="47.83072" lon="6.606">
        <ele>484</ele>
        <time>2021-02-26T21:39:31Z</time>
      </trkpt>
      <trkpt lat="47.83133" lon="6.6057">
        <ele>475</ele>
        <time>2021-02-26T21:39:46Z</time>
      </trkpt>
      <trkpt lat="47.83184" lon="6.60532">
        <ele>476</ele>
        <time>2021-02-26T21:39:59Z</time>
      </trkpt>
      <trkpt lat="47.83221" lon="6.60523">
        <ele>474</ele>
        <time>2021-02-26T21:40:08Z</time>
      </trkpt>
      <trkpt lat="47.83246" lon="6.60523">
        <ele>472</ele>
        <time>2021-02-26T21:40:14Z</time>
      </trkpt>
      <trkpt lat="47.83274" lon="6.60511">
        <ele>478</ele>
        <time>2021-02-26T21:40:21Z</time>
      </trkpt>
      <trkpt lat="47.83294" lon="6.60525">
        <ele>476</ele>
        <time>2021-02-26T21:40:26Z</time>
      </trkpt>
      <trkpt lat="47.83288" lon="6.60542">
        <ele>470</ele>
        <time>2021-02-26T21:40:29Z</time>
      </trkpt>
      <trkpt lat="47.83256" lon="6.60561">
        <ele>460</ele>
        <time>2021-02-26T21:40:37Z</time>
      </trkpt>
      <trkpt lat="47.83225" lon="6.60592">
        <ele>454</ele>
        <time>2021-02-26T21:40:46Z</time>
      </trkpt>
      <trkpt lat="47.83192" lon="6.60634">
        <ele>450</ele>
        <time>2021-02-26T21:40:56Z</time>
      </trkpt>
      <trkpt lat="47.83156" lon="6.60701">
        <ele>444</ele>
        <time>2021-02-26T21:41:09Z</time>
      </trkpt>
      <trkpt lat="47.83178" lon="6.6086">
        <ele>429</ele>
        <time>2021-02-26T21:41:35Z</time>
      </trkpt>
      <trkpt lat="47.83186" lon="6.60898">
        <ele>427</ele>
        <time>2021-02-26T21:41:41Z</time>
      </trkpt>
      <trkpt lat="47.83183" lon="6.60934">
        <ele>426</ele>
        <time>2021-02-26T21:41:46Z</time>
      </trkpt>
      <trkpt lat="47.83169" lon="6.60973">
        <ele>426</ele>
        <time>2021-02-26T21:41:53Z</time>
      </trkpt>
      <trkpt lat="47.83168" lon="6.61024">
        <ele>424</ele>
        <time>2021-02-26T21:42:01Z</time>
      </trkpt>
      <trkpt lat="47.83179" lon="6.61109">
        <ele>423</ele>
        <time>2021-02-26T21:42:15Z</time>
      </trkpt>
      <trkpt lat="47.83192" lon="6.61129">
        <ele>423</ele>
        <time>2021-02-26T21:42:19Z</time>
      </trkpt>
      <trkpt lat="47.83203" lon="6.61132">
        <ele>423</ele>
        <time>2021-02-26T21:42:22Z</time>
      </trkpt>
      <trkpt lat="47.83232" lon="6.61136">
        <ele>422</ele>
        <time>2021-02-26T21:42:29Z</time>
      </trkpt>
      <trkpt lat="47.83277" lon="6.61133">
        <ele>423</ele>
        <time>2021-02-26T21:42:39Z</time>
      </trkpt>
      <trkpt lat="47.83275" lon="6.61181">
        <ele>423</ele>
        <time>2021-02-26T21:42:47Z</time>
      </trkpt>
      <trkpt lat="47.83289" lon="6.61261">
        <ele>424</ele>
        <time>2021-02-26T21:43:00Z</time>
      </trkpt>
      <trkpt lat="47.8335" lon="6.61393">
        <ele>432</ele>
        <time>2021-02-26T21:43:25Z</time>
      </trkpt>
      <trkpt lat="47.83419" lon="6.61565">
        <ele>436</ele>
        <time>2021-02-26T21:43:56Z</time>
      </trkpt>
      <trkpt lat="47.83464" lon="6.6162">
        <ele>441</ele>
        <time>2021-02-26T21:44:10Z</time>
      </trkpt>
      <trkpt lat="47.83482" lon="6.61659">
        <ele>437</ele>
        <time>2021-02-26T21:44:17Z</time>
      </trkpt>
      <trkpt lat="47.83497" lon="6.61685">
        <ele>437</ele>
        <time>2021-02-26T21:44:23Z</time>
      </trkpt>
      <trkpt lat="47.83525" lon="6.61722">
        <ele>442</ele>
        <time>2021-02-26T21:44:31Z</time>
      </trkpt>
      <trkpt lat="47.8355" lon="6.61791">
        <ele>442</ele>
        <time>2021-02-26T21:44:44Z</time>
      </trkpt>
      <trkpt lat="47.83566" lon="6.61844">
        <ele>441</ele>
        <time>2021-02-26T21:44:53Z</time>
      </trkpt>
      <trkpt lat="47.83583" lon="6.61866">
        <ele>441</ele>
        <time>2021-02-26T21:44:58Z</time>
      </trkpt>
      <trkpt lat="47.8359" lon="6.61904">
        <ele>441</ele>
        <time>2021-02-26T21:45:04Z</time>
      </trkpt>
      <trkpt lat="47.83613" lon="6.61935">
        <ele>441</ele>
        <time>2021-02-26T21:45:12Z</time>
      </trkpt>
      <trkpt lat="47.83633" lon="6.62014">
        <ele>438</ele>
        <time>2021-02-26T21:45:25Z</time>
      </trkpt>
      <trkpt lat="47.83641" lon="6.62071">
        <ele>438</ele>
        <time>2021-02-26T21:45:34Z</time>
      </trkpt>
      <trkpt lat="47.83639" lon="6.6214">
        <ele>440</ele>
        <time>2021-02-26T21:45:45Z</time>
      </trkpt>
      <trkpt lat="47.83631" lon="6.62194">
        <ele>445</ele>
        <time>2021-02-26T21:45:53Z</time>
      </trkpt>
      <trkpt lat="47.83613" lon="6.62251">
        <ele>449</ele>
        <time>2021-02-26T21:46:03Z</time>
      </trkpt>
      <trkpt lat="47.83595" lon="6.62281">
        <ele>448</ele>
        <time>2021-02-26T21:46:10Z</time>
      </trkpt>
      <trkpt lat="47.83588" lon="6.62308">
        <ele>448</ele>
        <time>2021-02-26T21:46:14Z</time>
      </trkpt>
      <trkpt lat="47.83583" lon="6.62333">
        <ele>447</ele>
        <time>2021-02-26T21:46:18Z</time>
      </trkpt>
      <trkpt lat="47.83591" lon="6.62377">
        <ele>449</ele>
        <time>2021-02-26T21:46:25Z</time>
      </trkpt>
      <trkpt lat="47.83641" lon="6.6245">
        <ele>456</ele>
        <time>2021-02-26T21:46:42Z</time>
      </trkpt>
      <trkpt lat="47.83681" lon="6.62551">
        <ele>451</ele>
        <time>2021-02-26T21:47:00Z</time>
      </trkpt>
      <trkpt lat="47.83708" lon="6.62581">
        <ele>450</ele>
        <time>2021-02-26T21:47:08Z</time>
      </trkpt>
      <trkpt lat="47.8385" lon="6.62699">
        <ele>457</ele>
        <time>2021-02-26T21:47:46Z</time>
      </trkpt>
      <trkpt lat="47.83881" lon="6.62749">
        <ele>455</ele>
        <time>2021-02-26T21:47:57Z</time>
      </trkpt>
      <trkpt lat="47.83978" lon="6.62828">
        <ele>461</ele>
        <time>2021-02-26T21:48:22Z</time>
      </trkpt>
      <trkpt lat="47.8401" lon="6.62886">
        <ele>460</ele>
        <time>2021-02-26T21:48:34Z</time>
      </trkpt>
      <trkpt lat="47.84035" lon="6.62941">
        <ele>462</ele>
        <time>2021-02-26T21:48:45Z</time>
      </trkpt>
      <trkpt lat="47.84076" lon="6.63014">
        <ele>460</ele>
        <time>2021-02-26T21:49:00Z</time>
      </trkpt>
      <trkpt lat="47.84085" lon="6.63059">
        <ele>458</ele>
        <time>2021-02-26T21:49:07Z</time>
      </trkpt>
      <trkpt lat="47.84094" lon="6.63145">
        <ele>459</ele>
        <time>2021-02-26T21:49:21Z</time>
      </trkpt>
      <trkpt lat="47.84108" lon="6.63206">
        <ele>463</ele>
        <time>2021-02-26T21:49:31Z</time>
      </trkpt>
      <trkpt lat="47.84138" lon="6.633">
        <ele>469</ele>
        <time>2021-02-26T21:49:47Z</time>
      </trkpt>
      <trkpt lat="47.8418" lon="6.63491">
        <ele>472</ele>
        <time>2021-02-26T21:50:18Z</time>
      </trkpt>
      <trkpt lat="47.84192" lon="6.63526">
        <ele>473</ele>
        <time>2021-02-26T21:50:25Z</time>
      </trkpt>
      <trkpt lat="47.84217" lon="6.63559">
        <ele>473</ele>
        <time>2021-02-26T21:50:32Z</time>
      </trkpt>
      <trkpt lat="47.84219" lon="6.63592">
        <ele>471</ele>
        <time>2021-02-26T21:50:38Z</time>
      </trkpt>
      <trkpt lat="47.84208" lon="6.63622">
        <ele>472</ele>
        <time>2021-02-26T21:50:43Z</time>
      </trkpt>
      <trkpt lat="47.84209" lon="6.63658">
        <ele>473</ele>
        <time>2021-02-26T21:50:49Z</time>
      </trkpt>
      <trkpt lat="47.8422" lon="6.6369">
        <ele>478</ele>
        <time>2021-02-26T21:50:54Z</time>
      </trkpt>
      <trkpt lat="47.84291" lon="6.63735">
        <ele>486</ele>
        <time>2021-02-26T21:51:12Z</time>
      </trkpt>
      <trkpt lat="47.84278" lon="6.63766">
        <ele>494</ele>
        <time>2021-02-26T21:51:18Z</time>
      </trkpt>
      <trkpt lat="47.84213" lon="6.63794">
        <ele>500</ele>
        <time>2021-02-26T21:51:34Z</time>
      </trkpt>
      <trkpt lat="47.84177" lon="6.63864">
        <ele>514</ele>
        <time>2021-02-26T21:51:48Z</time>
      </trkpt>
      <trkpt lat="47.84136" lon="6.63913">
        <ele>523</ele>
        <time>2021-02-26T21:52:00Z</time>
      </trkpt>
      <trkpt lat="47.84115" lon="6.63958">
        <ele>531</ele>
        <time>2021-02-26T21:52:08Z</time>
      </trkpt>
      <trkpt lat="47.84102" lon="6.64024">
        <ele>543</ele>
        <time>2021-02-26T21:52:19Z</time>
      </trkpt>
      <trkpt lat="47.84082" lon="6.6403">
        <ele>540</ele>
        <time>2021-02-26T21:52:24Z</time>
      </trkpt>
      <trkpt lat="47.84054" lon="6.6401">
        <ele>537</ele>
        <time>2021-02-26T21:52:31Z</time>
      </trkpt>
      <trkpt lat="47.84043" lon="6.63991">
        <ele>535</ele>
        <time>2021-02-26T21:52:35Z</time>
      </trkpt>
      <trkpt lat="47.84039" lon="6.64023">
        <ele>539</ele>
        <time>2021-02-26T21:52:40Z</time>
      </trkpt>
      <trkpt lat="47.83988" lon="6.6414">
        <ele>544</ele>
        <time>2021-02-26T21:53:02Z</time>
      </trkpt>
      <trkpt lat="47.8396" lon="6.64236">
        <ele>551</ele>
        <time>2021-02-26T21:53:19Z</time>
      </trkpt>
      <trkpt lat="47.83978" lon="6.64243">
        <ele>551</ele>
        <time>2021-02-26T21:53:23Z</time>
      </trkpt>
      <trkpt lat="47.8404" lon="6.64281">
        <ele>561</ele>
        <time>2021-02-26T21:53:39Z</time>
      </trkpt>
      <trkpt lat="47.84061" lon="6.64269">
        <ele>560</ele>
        <time>2021-02-26T21:53:44Z</time>
      </trkpt>
      <trkpt lat="47.84083" lon="6.6423">
        <ele>558</ele>
        <time>2021-02-26T21:53:52Z</time>
      </trkpt>
      <trkpt lat="47.84101" lon="6.64187">
        <ele>560</ele>
        <time>2021-02-26T21:54:00Z</time>
      </trkpt>
      <trkpt lat="47.84096" lon="6.64125">
        <ele>555</ele>
        <time>2021-02-26T21:54:10Z</time>
      </trkpt>
      <trkpt lat="47.84115" lon="6.64095">
        <ele>558</ele>
        <time>2021-02-26T21:54:16Z</time>
      </trkpt>
      <trkpt lat="47.84134" lon="6.64058">
        <ele>556</ele>
        <time>2021-02-26T21:54:23Z</time>
      </trkpt>
      <trkpt lat="47.8415" lon="6.64072">
        <ele>563</ele>
        <time>2021-02-26T21:54:28Z</time>
      </trkpt>
      <trkpt lat="47.84128" lon="6.64156">
        <ele>567</ele>
        <time>2021-02-26T21:54:42Z</time>
      </trkpt>
      <trkpt lat="47.84122" lon="6.64209">
        <ele>569</ele>
        <time>2021-02-26T21:54:50Z</time>
      </trkpt>
      <trkpt lat="47.84105" lon="6.64257">
        <ele>567</ele>
        <time>2021-02-26T21:54:59Z</time>
      </trkpt>
      <trkpt lat="47.84119" lon="6.64316">
        <ele>577</ele>
        <time>2021-02-26T21:55:09Z</time>
      </trkpt>
      <trkpt lat="47.84126" lon="6.64372">
        <ele>585</ele>
        <time>2021-02-26T21:55:17Z</time>
      </trkpt>
      <trkpt lat="47.84137" lon="6.64512">
        <ele>595</ele>
        <time>2021-02-26T21:55:40Z</time>
      </trkpt>
      <trkpt lat="47.84134" lon="6.646">
        <ele>596</ele>
        <time>2021-02-26T21:55:53Z</time>
      </trkpt>
      <trkpt lat="47.84126" lon="6.64631">
        <ele>598</ele>
        <time>2021-02-26T21:55:59Z</time>
      </trkpt>
      <trkpt lat="47.84119" lon="6.64631">
        <ele>599</ele>
        <time>2021-02-26T21:56:00Z</time>
      </trkpt>
      <trkpt lat="47.84111" lon="6.64621">
        <ele>599</ele>
        <time>2021-02-26T21:56:03Z</time>
      </trkpt>
      <trkpt lat="47.84058" lon="6.64526">
        <ele>595</ele>
        <time>2021-02-26T21:56:22Z</time>
      </trkpt>
      <trkpt lat="47.84038" lon="6.64525">
        <ele>597</ele>
        <time>2021-02-26T21:56:27Z</time>
      </trkpt>
      <trkpt lat="47.84031" lon="6.64548">
        <ele>599</ele>
        <time>2021-02-26T21:56:31Z</time>
      </trkpt>
      <trkpt lat="47.84037" lon="6.64573">
        <ele>600</ele>
        <time>2021-02-26T21:56:35Z</time>
      </trkpt>
      <trkpt lat="47.84025" lon="6.6471">
        <ele>614</ele>
        <time>2021-02-26T21:56:56Z</time>
      </trkpt>
      <trkpt lat="47.84036" lon="6.64756">
        <ele>616</ele>
        <time>2021-02-26T21:57:04Z</time>
      </trkpt>
      <trkpt lat="47.84038" lon="6.64784">
        <ele>615</ele>
        <time>2021-02-26T21:57:09Z</time>
      </trkpt>
      <trkpt lat="47.84031" lon="6.64806">
        <ele>615</ele>
        <time>2021-02-26T21:57:12Z</time>
      </trkpt>
      <trkpt lat="47.84047" lon="6.65031">
        <ele>617</ele>
        <time>2021-02-26T21:57:48Z</time>
      </trkpt>
      <trkpt lat="47.8404" lon="6.65083">
        <ele>612</ele>
        <time>2021-02-26T21:57:56Z</time>
      </trkpt>
      <trkpt lat="47.84047" lon="6.6511">
        <ele>611</ele>
        <time>2021-02-26T21:58:01Z</time>
      </trkpt>
      <trkpt lat="47.84063" lon="6.65135">
        <ele>611</ele>
        <time>2021-02-26T21:58:06Z</time>
      </trkpt>
      <trkpt lat="47.84059" lon="6.6516">
        <ele>607</ele>
        <time>2021-02-26T21:58:10Z</time>
      </trkpt>
      <trkpt lat="47.84035" lon="6.65185">
        <ele>601</ele>
        <time>2021-02-26T21:58:17Z</time>
      </trkpt>
      <trkpt lat="47.83959" lon="6.6528">
        <ele>600</ele>
        <time>2021-02-26T21:58:40Z</time>
      </trkpt>
      <trkpt lat="47.83955" lon="6.65309">
        <ele>601</ele>
        <time>2021-02-26T21:58:45Z</time>
      </trkpt>
      <trkpt lat="47.83959" lon="6.65331">
        <ele>602</ele>
        <time>2021-02-26T21:58:48Z</time>
      </trkpt>
      <trkpt lat="47.83934" lon="6.65372">
        <ele>603</ele>
        <time>2021-02-26T21:58:57Z</time>
      </trkpt>
      <trkpt lat="47.83919" lon="6.65388">
        <ele>603</ele>
        <time>2021-02-26T21:59:01Z</time>
      </trkpt>
      <trkpt lat="47.83904" lon="6.65398">
        <ele>602</ele>
        <time>2021-02-26T21:59:05Z</time>
      </trkpt>
      <trkpt lat="47.83871" lon="6.65348">
        <ele>602</ele>
        <time>2021-02-26T21:59:16Z</time>
      </trkpt>
      <trkpt lat="47.83826" lon="6.65351">
        <ele>602</ele>
        <time>2021-02-26T21:59:27Z</time>
      </trkpt>
      <trkpt lat="47.83761" lon="6.65342">
        <ele>604</ele>
        <time>2021-02-26T21:59:42Z</time>
      </trkpt>
      <trkpt lat="47.837" lon="6.65251">
        <ele>603</ele>
        <time>2021-02-26T22:00:02Z</time>
      </trkpt>
      <trkpt lat="47.8369" lon="6.65247">
        <ele>603</ele>
        <time>2021-02-26T22:00:04Z</time>
      </trkpt>
      <trkpt lat="47.83669" lon="6.6525">
        <ele>603</ele>
        <time>2021-02-26T22:00:09Z</time>
      </trkpt>
      <trkpt lat="47.8365" lon="6.65321">
        <ele>605</ele>
        <time>2021-02-26T22:00:21Z</time>
      </trkpt>
      <trkpt lat="47.83624" lon="6.65344">
        <ele>605</ele>
        <time>2021-02-26T22:00:28Z</time>
      </trkpt>
      <trkpt lat="47.83601" lon="6.65382">
        <ele>606</ele>
        <time>2021-02-26T22:00:36Z</time>
      </trkpt>
      <trkpt lat="47.8356" lon="6.65375">
        <ele>605</ele>
        <time>2021-02-26T22:00:46Z</time>
      </trkpt>
      <trkpt lat="47.83545" lon="6.6538">
        <ele>604</ele>
        <time>2021-02-26T22:00:50Z</time>
      </trkpt>
      <trkpt lat="47.83531" lon="6.65406">
        <ele>604</ele>
        <time>2021-02-26T22:00:55Z</time>
      </trkpt>
      <trkpt lat="47.83522" lon="6.65432">
        <ele>604</ele>
        <time>2021-02-26T22:00:59Z</time>
      </trkpt>
      <trkpt lat="47.83518" lon="6.65483">
        <ele>605</ele>
        <time>2021-02-26T22:01:08Z</time>
      </trkpt>
      <trkpt lat="47.83495" lon="6.65509">
        <ele>605</ele>
        <time>2021-02-26T22:01:14Z</time>
      </trkpt>
      <trkpt lat="47.83483" lon="6.65547">
        <ele>606</ele>
        <time>2021-02-26T22:01:21Z</time>
      </trkpt>
      <trkpt lat="47.83472" lon="6.65472">
        <ele>604</ele>
        <time>2021-02-26T22:01:33Z</time>
      </trkpt>
      <trkpt lat="47.83489" lon="6.65408">
        <ele>603</ele>
        <time>2021-02-26T22:01:44Z</time>
      </trkpt>
      <trkpt lat="47.83493" lon="6.65348">
        <ele>602</ele>
        <time>2021-02-26T22:01:53Z</time>
      </trkpt>
      <trkpt lat="47.83508" lon="6.65311">
        <ele>602</ele>
        <time>2021-02-26T22:02:00Z</time>
      </trkpt>
      <trkpt lat="47.83512" lon="6.65279">
        <ele>602</ele>
        <time>2021-02-26T22:02:05Z</time>
      </trkpt>
      <trkpt lat="47.83543" lon="6.65235">
        <ele>603</ele>
        <time>2021-02-26T22:02:15Z</time>
      </trkpt>
      <trkpt lat="47.83572" lon="6.65179">
        <ele>607</ele>
        <time>2021-02-26T22:02:26Z</time>
      </trkpt>
      <trkpt lat="47.83596" lon="6.65067">
        <ele>608</ele>
        <time>2021-02-26T22:02:45Z</time>
      </trkpt>
      <trkpt lat="47.83607" lon="6.65045">
        <ele>606</ele>
        <time>2021-02-26T22:02:49Z</time>
      </trkpt>
      <trkpt lat="47.83631" lon="6.65022">
        <ele>604</ele>
        <time>2021-02-26T22:02:55Z</time>
      </trkpt>
      <trkpt lat="47.83636" lon="6.64983">
        <ele>602</ele>
        <time>2021-02-26T22:03:02Z</time>
      </trkpt>
      <trkpt lat="47.83634" lon="6.64901">
        <ele>597</ele>
        <time>2021-02-26T22:03:15Z</time>
      </trkpt>
      <trkpt lat="47.83615" lon="6.64864">
        <ele>597</ele>
        <time>2021-02-26T22:03:22Z</time>
      </trkpt>
      <trkpt lat="47.83618" lon="6.64826">
        <ele>594</ele>
        <time>2021-02-26T22:03:28Z</time>
      </trkpt>
      <trkpt lat="47.83632" lon="6.64783">
        <ele>592</ele>
        <time>2021-02-26T22:03:35Z</time>
      </trkpt>
      <trkpt lat="47.83605" lon="6.64622">
        <ele>595</ele>
        <time>2021-02-26T22:04:01Z</time>
      </trkpt>
      <trkpt lat="47.83611" lon="6.64583">
        <ele>595</ele>
        <time>2021-02-26T22:04:08Z</time>
      </trkpt>
      <trkpt lat="47.83605" lon="6.64555">
        <ele>596</ele>
        <time>2021-02-26T22:04:12Z</time>
      </trkpt>
      <trkpt lat="47.83589" lon="6.64524">
        <ele>596</ele>
        <time>2021-02-26T22:04:18Z</time>
      </trkpt>
      <trkpt lat="47.83525" lon="6.64435">
        <ele>594</ele>
        <time>2021-02-26T22:04:39Z</time>
      </trkpt>
      <trkpt lat="47.8345" lon="6.64551">
        <ele>592</ele>
        <time>2021-02-26T22:05:04Z</time>
      </trkpt>
      <trkpt lat="47.83435" lon="6.64582">
        <ele>592</ele>
        <time>2021-02-26T22:05:10Z</time>
      </trkpt>
      <trkpt lat="47.83449" lon="6.6466">
        <ele>592</ele>
        <time>2021-02-26T22:05:23Z</time>
      </trkpt>
      <trkpt lat="47.83388" lon="6.64772">
        <ele>592</ele>
        <time>2021-02-26T22:05:45Z</time>
      </trkpt>
      <trkpt lat="47.8338" lon="6.64812">
        <ele>592</ele>
        <time>2021-02-26T22:05:52Z</time>
      </trkpt>
      <trkpt lat="47.83354" lon="6.64863">
        <ele>591</ele>
        <time>2021-02-26T22:06:02Z</time>
      </trkpt>
      <trkpt lat="47.8335" lon="6.64925">
        <ele>590</ele>
        <time>2021-02-26T22:06:12Z</time>
      </trkpt>
      <trkpt lat="47.83328" lon="6.64951">
        <ele>589</ele>
        <time>2021-02-26T22:06:18Z</time>
      </trkpt>
      <trkpt lat="47.83299" lon="6.64964">
        <ele>591</ele>
        <time>2021-02-26T22:06:25Z</time>
      </trkpt>
      <trkpt lat="47.83263" lon="6.65037">
        <ele>593</ele>
        <time>2021-02-26T22:06:40Z</time>
      </trkpt>
      <trkpt lat="47.83234" lon="6.65077">
        <ele>595</ele>
        <time>2021-02-26T22:06:49Z</time>
      </trkpt>
      <trkpt lat="47.83152" lon="6.65268">
        <ele>600</ele>
        <time>2021-02-26T22:07:24Z</time>
      </trkpt>
      <trkpt lat="47.83138" lon="6.65332">
        <ele>602</ele>
        <time>2021-02-26T22:07:35Z</time>
      </trkpt>
      <trkpt lat="47.83136" lon="6.65419">
        <ele>602</ele>
        <time>2021-02-26T22:07:49Z</time>
      </trkpt>
      <trkpt lat="47.83118" lon="6.65476">
        <ele>602</ele>
        <time>2021-02-26T22:07:58Z</time>
      </trkpt>
      <trkpt lat="47.83059" lon="6.65408">
        <ele>604</ele>
        <time>2021-02-26T22:08:16Z</time>
      </trkpt>
      <trkpt lat="47.83038" lon="6.65387">
        <ele>605</ele>
        <time>2021-02-26T22:08:22Z</time>
      </trkpt>
      <trkpt lat="47.8299" lon="6.65385">
        <ele>604</ele>
        <time>2021-02-26T22:08:33Z</time>
      </trkpt>
      <trkpt lat="47.82955" lon="6.65352">
        <ele>600</ele>
        <time>2021-02-26T22:08:43Z</time>
      </trkpt>
      <trkpt lat="47.82931" lon="6.65304">
        <ele>598</ele>
        <time>2021-02-26T22:08:52Z</time>
      </trkpt>
      <trkpt lat="47.82858" lon="6.65278">
        <ele>596</ele>
        <time>2021-02-26T22:09:10Z</time>
      </trkpt>
      <trkpt lat="47.82815" lon="6.65282">
        <ele>596</ele>
        <time>2021-02-26T22:09:20Z</time>
      </trkpt>
      <trkpt lat="47.8275" lon="6.65276">
        <ele>600</ele>
        <time>2021-02-26T22:09:35Z</time>
      </trkpt>
      <trkpt lat="47.82697" lon="6.65283">
        <ele>595</ele>
        <time>2021-02-26T22:09:47Z</time>
      </trkpt>
      <trkpt lat="47.82673" lon="6.6526">
        <ele>594</ele>
        <time>2021-02-26T22:09:54Z</time>
      </trkpt>
      <trkpt lat="47.82618" lon="6.65123">
        <ele>587</ele>
        <time>2021-02-26T22:10:19Z</time>
      </trkpt>
      <trkpt lat="47.82608" lon="6.65053">
        <ele>585</ele>
        <time>2021-02-26T22:10:30Z</time>
      </trkpt>
      <trkpt lat="47.82601" lon="6.6502">
        <ele>583</ele>
        <time>2021-02-26T22:10:36Z</time>
      </trkpt>
      <trkpt lat="47.82573" lon="6.64965">
        <ele>579</ele>
        <time>2021-02-26T22:10:46Z</time>
      </trkpt>
      <trkpt lat="47.82548" lon="6.6496">
        <ele>578</ele>
        <time>2021-02-26T22:10:52Z</time>
      </trkpt>
      <trkpt lat="47.82515" lon="6.65002">
        <ele>578</ele>
        <time>2021-02-26T22:11:02Z</time>
      </trkpt>
      <trkpt lat="47.82487" lon="6.64986">
        <ele>578</ele>
        <time>2021-02-26T22:11:09Z</time>
      </trkpt>
      <trkpt lat="47.82457" lon="6.65022">
        <ele>583</ele>
        <time>2021-02-26T22:11:18Z</time>
      </trkpt>
      <trkpt lat="47.82446" lon="6.64943">
        <ele>582</ele>
        <time>2021-02-26T22:11:31Z</time>
      </trkpt>
      <trkpt lat="47.82414" lon="6.64851">
        <ele>581</ele>
        <time>2021-02-26T22:11:47Z</time>
      </trkpt>
      <trkpt lat="47.82447" lon="6.64722">
        <ele>575</ele>
        <time>2021-02-26T22:12:09Z</time>
      </trkpt>
      <trkpt lat="47.82407" lon="6.6457">
        <ele>581</ele>
        <time>2021-02-26T22:12:35Z</time>
      </trkpt>
      <trkpt lat="47.824" lon="6.64426">
        <ele>584</ele>
        <time>2021-02-26T22:12:57Z</time>
      </trkpt>
      <trkpt lat="47.82409" lon="6.6428">
        <ele>576</ele>
        <time>2021-02-26T22:13:20Z</time>
      </trkpt>
      <trkpt lat="47.82311" lon="6.6418">
        <ele>569</ele>
        <time>2021-02-26T22:13:48Z</time>
      </trkpt>
      <trkpt lat="47.823" lon="6.64148">
        <ele>567</ele>
        <time>2021-02-26T22:13:54Z</time>
      </trkpt>
      <trkpt lat="47.82308" lon="6.6411">
        <ele>566</ele>
        <time>2021-02-26T22:14:00Z</time>
      </trkpt>
      <trkpt lat="47.8234" lon="6.64053">
        <ele>568</ele>
        <time>2021-02-26T22:14:11Z</time>
      </trkpt>
      <trkpt lat="47.8235" lon="6.6397">
        <ele>567</ele>
        <time>2021-02-26T22:14:25Z</time>
      </trkpt>
      <trkpt lat="47.82336" lon="6.63941">
        <ele>567</ele>
        <time>2021-02-26T22:14:30Z</time>
      </trkpt>
      <trkpt lat="47.82265" lon="6.63875">
        <ele>562</ele>
        <time>2021-02-26T22:14:50Z</time>
      </trkpt>
      <trkpt lat="47.82169" lon="6.63835">
        <ele>558</ele>
        <time>2021-02-26T22:15:13Z</time>
      </trkpt>
      <trkpt lat="47.82134" lon="6.6371">
        <ele>562</ele>
        <time>2021-02-26T22:15:34Z</time>
      </trkpt>
      <trkpt lat="47.82078" lon="6.63636">
        <ele>566</ele>
        <time>2021-02-26T22:15:52Z</time>
      </trkpt>
      <trkpt lat="47.82065" lon="6.6354">
        <ele>567</ele>
        <time>2021-02-26T22:16:07Z</time>
      </trkpt>
      <trkpt lat="47.8207" lon="6.63477">
        <ele>568</ele>
        <time>2021-02-26T22:16:17Z</time>
      </trkpt>
      <trkpt lat="47.82068" lon="6.63357">
        <ele>564</ele>
        <time>2021-02-26T22:16:36Z</time>
      </trkpt>
      <trkpt lat="47.82051" lon="6.63302">
        <ele>560</ele>
        <time>2021-02-26T22:16:45Z</time>
      </trkpt>
      <trkpt lat="47.81988" lon="6.63247">
        <ele>557</ele>
        <time>2021-02-26T22:17:02Z</time>
      </trkpt>
      <trkpt lat="47.81967" lon="6.63191">
        <ele>556</ele>
        <time>2021-02-26T22:17:13Z</time>
      </trkpt>
      <trkpt lat="47.81965" lon="6.63108">
        <ele>554</ele>
        <time>2021-02-26T22:17:26Z</time>
      </trkpt>
      <trkpt lat="47.81978" lon="6.63061">
        <ele>554</ele>
        <time>2021-02-26T22:17:34Z</time>
      </trkpt>
      <trkpt lat="47.81967" lon="6.62998">
        <ele>550</ele>
        <time>2021-02-26T22:17:44Z</time>
      </trkpt>
      <trkpt lat="47.81985" lon="6.62959">
        <ele>548</ele>
        <time>2021-02-26T22:17:51Z</time>
      </trkpt>
      <trkpt lat="47.81981" lon="6.62929">
        <ele>546</ele>
        <time>2021-02-26T22:17:56Z</time>
      </trkpt>
      <trkpt lat="47.81964" lon="6.629">
        <ele>547</ele>
        <time>2021-02-26T22:18:02Z</time>
      </trkpt>
      <trkpt lat="47.81895" lon="6.62912">
        <ele>546</ele>
        <time>2021-02-26T22:18:18Z</time>
      </trkpt>
      <trkpt lat="47.81871" lon="6.62877">
        <ele>549</ele>
        <time>2021-02-26T22:18:26Z</time>
      </trkpt>
      <trkpt lat="47.81858" lon="6.62826">
        <ele>552</ele>
        <time>2021-02-26T22:18:35Z</time>
      </trkpt>
      <trkpt lat="47.81867" lon="6.62747">
        <ele>555</ele>
        <time>2021-02-26T22:18:47Z</time>
      </trkpt>
      <trkpt lat="47.81885" lon="6.62705">
        <ele>554</ele>
        <time>2021-02-26T22:18:55Z</time>
      </trkpt>
      <trkpt lat="47.81921" lon="6.62661">
        <ele>552</ele>
        <time>2021-02-26T22:19:06Z</time>
      </trkpt>
      <trkpt lat="47.81937" lon="6.62621">
        <ele>550</ele>
        <time>2021-02-26T22:19:13Z</time>
      </trkpt>
      <trkpt lat="47.81923" lon="6.62486">
        <ele>544</ele>
        <time>2021-02-26T22:19:35Z</time>
      </trkpt>
      <trkpt lat="47.81888" lon="6.62423">
        <ele>539</ele>
        <time>2021-02-26T22:19:47Z</time>
      </trkpt>
      <trkpt lat="47.81884" lon="6.62391">
        <ele>536</ele>
        <time>2021-02-26T22:19:53Z</time>
      </trkpt>
      <trkpt lat="47.81903" lon="6.62288">
        <ele>530</ele>
        <time>2021-02-26T22:20:09Z</time>
      </trkpt>
      <trkpt lat="47.81899" lon="6.62261">
        <ele>530</ele>
        <time>2021-02-26T22:20:14Z</time>
      </trkpt>
      <trkpt lat="47.81878" lon="6.62225">
        <ele>531</ele>
        <time>2021-02-26T22:20:21Z</time>
      </trkpt>
      <trkpt lat="47.81828" lon="6.62175">
        <ele>532</ele>
        <time>2021-02-26T22:20:35Z</time>
      </trkpt>
      <trkpt lat="47.81814" lon="6.62152">
        <ele>531</ele>
        <time>2021-02-26T22:20:40Z</time>
      </trkpt>
      <trkpt lat="47.81803" lon="6.62106">
        <ele>530</ele>
        <time>2021-02-26T22:20:48Z</time>
      </trkpt>
      <trkpt lat="47.81765" lon="6.62046">
        <ele>528</ele>
        <time>2021-02-26T22:21:01Z</time>
      </trkpt>
      <trkpt lat="47.8176" lon="6.61991">
        <ele>530</ele>
        <time>2021-02-26T22:21:09Z</time>
      </trkpt>
      <trkpt lat="47.81733" lon="6.61938">
        <ele>530</ele>
        <time>2021-02-26T22:21:20Z</time>
      </trkpt>
      <trkpt lat="47.81703" lon="6.61869">
        <ele>528</ele>
        <time>2021-02-26T22:21:33Z</time>
      </trkpt>
      <trkpt lat="47.81669" lon="6.61821">
        <ele>525</ele>
        <time>2021-02-26T22:21:44Z</time>
      </trkpt>
      <trkpt lat="47.81562" lon="6.61879">
        <ele>515</ele>
        <time>2021-02-26T22:22:10Z</time>
      </trkpt>
      <trkpt lat="47.81476" lon="6.6188">
        <ele>512</ele>
        <time>2021-02-26T22:22:30Z</time>
      </trkpt>
      <trkpt lat="47.81433" lon="6.61856">
        <ele>511</ele>
        <time>2021-02-26T22:22:41Z</time>
      </trkpt>
      <trkpt lat="47.81386" lon="6.61847">
        <ele>509</ele>
        <time>2021-02-26T22:22:52Z</time>
      </trkpt>
      <trkpt lat="47.81314" lon="6.61795">
        <ele>507</ele>
        <time>2021-02-26T22:23:11Z</time>
      </trkpt>
      <trkpt lat="47.81272" lon="6.61743">
        <ele>505</ele>
        <time>2021-02-26T22:23:23Z</time>
      </trkpt>
      <trkpt lat="47.81228" lon="6.61671">
        <ele>500</ele>
        <time>2021-02-26T22:23:39Z</time>
      </trkpt>
      <trkpt lat="47.8117" lon="6.61684">
        <ele>501</ele>
        <time>2021-02-26T22:23:52Z</time>
      </trkpt>
      <trkpt lat="47.81141" lon="6.61705">
        <ele>502</ele>
        <time>2021-02-26T22:24:00Z</time>
      </trkpt>
      <trkpt lat="47.81103" lon="6.61747">
        <ele>505</ele>
        <time>2021-02-26T22:24:11Z</time>
      </trkpt>
      <trkpt lat="47.81072" lon="6.61813">
        <ele>508</ele>
        <time>2021-02-26T22:24:24Z</time>
      </trkpt>
      <trkpt lat="47.81052" lon="6.61874">
        <ele>508</ele>
        <time>2021-02-26T22:24:34Z</time>
      </trkpt>
      <trkpt lat="47.81049" lon="6.61906">
        <ele>508</ele>
        <time>2021-02-26T22:24:39Z</time>
      </trkpt>
      <trkpt lat="47.80984" lon="6.61947">
        <ele>509</ele>
        <time>2021-02-26T22:24:56Z</time>
      </trkpt>
      <trkpt lat="47.80959" lon="6.61973">
        <ele>509</ele>
        <time>2021-02-26T22:25:03Z</time>
      </trkpt>
      <trkpt lat="47.80942" lon="6.62022">
        <ele>510</ele>
        <time>2021-02-26T22:25:12Z</time>
      </trkpt>
      <trkpt lat="47.80944" lon="6.62087">
        <ele>510</ele>
        <time>2021-02-26T22:25:22Z</time>
      </trkpt>
      <trkpt lat="47.80963" lon="6.6211">
        <ele>511</ele>
        <time>2021-02-26T22:25:28Z</time>
      </trkpt>
      <trkpt lat="47.80967" lon="6.62138">
        <ele>512</ele>
        <time>2021-02-26T22:25:32Z</time>
      </trkpt>
      <trkpt lat="47.8096" lon="6.62204">
        <ele>511</ele>
        <time>2021-02-26T22:25:43Z</time>
      </trkpt>
      <trkpt lat="47.80962" lon="6.62252">
        <ele>510</ele>
        <time>2021-02-26T22:25:50Z</time>
      </trkpt>
      <trkpt lat="47.80948" lon="6.62254">
        <ele>510</ele>
        <time>2021-02-26T22:25:53Z</time>
      </trkpt>
      <trkpt lat="47.80862" lon="6.62315">
        <ele>509</ele>
        <time>2021-02-26T22:26:16Z</time>
      </trkpt>
      <trkpt lat="47.80771" lon="6.62355">
        <ele>504</ele>
        <time>2021-02-26T22:26:38Z</time>
      </trkpt>
      <trkpt lat="47.80696" lon="6.62405">
        <ele>496</ele>
        <time>2021-02-26T22:26:57Z</time>
      </trkpt>
      <trkpt lat="47.80674" lon="6.62489">
        <ele>492</ele>
        <time>2021-02-26T22:27:11Z</time>
      </trkpt>
      <trkpt lat="47.80668" lon="6.62571">
        <ele>488</ele>
        <time>2021-02-26T22:27:24Z</time>
      </trkpt>
      <trkpt lat="47.80634" lon="6.62669">
        <ele>486</ele>
        <time>2021-02-26T22:27:41Z</time>
      </trkpt>
      <trkpt lat="47.80587" lon="6.62716">
        <ele>485</ele>
        <time>2021-02-26T22:27:55Z</time>
      </trkpt>
      <trkpt lat="47.80525" lon="6.62747">
        <ele>485</ele>
        <time>2021-02-26T22:28:10Z</time>
      </trkpt>
      <trkpt lat="47.80502" lon="6.62794">
        <ele>481</ele>
        <time>2021-02-26T22:28:19Z</time>
      </trkpt>
      <trkpt lat="47.80463" lon="6.62804">
        <ele>480</ele>
        <time>2021-02-26T22:28:28Z</time>
      </trkpt>
      <trkpt lat="47.80442" lon="6.6278">
        <ele>483</ele>
        <time>2021-02-26T22:28:34Z</time>
      </trkpt>
      <trkpt lat="47.80422" lon="6.62835">
        <ele>479</ele>
        <time>2021-02-26T22:28:44Z</time>
      </trkpt>
      <trkpt lat="47.80462" lon="6.62892">
        <ele>475</ele>
        <time>2021-02-26T22:28:57Z</time>
      </trkpt>
      <trkpt lat="47.80434" lon="6.62913">
        <ele>473</ele>
        <time>2021-02-26T22:29:04Z</time>
      </trkpt>
      <trkpt lat="47.80406" lon="6.62965">
        <ele>472</ele>
        <time>2021-02-26T22:29:15Z</time>
      </trkpt>
      <trkpt lat="47.80366" lon="6.62977">
        <ele>474</ele>
        <time>2021-02-26T22:29:24Z</time>
      </trkpt>
      <trkpt lat="47.80343" lon="6.62959">
        <ele>478</ele>
        <time>2021-02-26T22:29:30Z</time>
      </trkpt>
      <trkpt lat="47.80314" lon="6.62982">
        <ele>478</ele>
        <time>2021-02-26T22:29:38Z</time>
      </trkpt>
      <trkpt lat="47.80267" lon="6.63007">
        <ele>479</ele>
        <time>2021-02-26T22:29:50Z</time>
      </trkpt>
      <trkpt lat="47.80216" lon="6.62996">
        <ele>481</ele>
        <time>2021-02-26T22:30:02Z</time>
      </trkpt>
      <trkpt lat="47.80186" lon="6.62963">
        <ele>483</ele>
        <time>2021-02-26T22:30:11Z</time>
      </trkpt>
      <trkpt lat="47.80162" lon="6.62908">
        <ele>485</ele>
        <time>2021-02-26T22:30:21Z</time>
      </trkpt>
      <trkpt lat="47.8009" lon="6.62758">
        <ele>482</ele>
        <time>2021-02-26T22:30:50Z</time>
      </trkpt>
      <trkpt lat="47.80072" lon="6.62678">
        <ele>479</ele>
        <time>2021-02-26T22:31:03Z</time>
      </trkpt>
      <trkpt lat="47.79995" lon="6.6266">
        <ele>477</ele>
        <time>2021-02-26T22:31:21Z</time>
      </trkpt>
      <trkpt lat="47.79941" lon="6.62657">
        <ele>477</ele>
        <time>2021-02-26T22:31:34Z</time>
      </trkpt>
      <trkpt lat="47.79905" lon="6.62669">
        <ele>477</ele>
        <time>2021-02-26T22:31:42Z</time>
      </trkpt>
      <trkpt lat="47.79849" lon="6.62638">
        <ele>479</ele>
        <time>2021-02-26T22:31:56Z</time>
      </trkpt>
      <trkpt lat="47.79805" lon="6.62582">
        <ele>481</ele>
        <time>2021-02-26T22:32:10Z</time>
      </trkpt>
      <trkpt lat="47.79784" lon="6.62509">
        <ele>479</ele>
        <time>2021-02-26T22:32:22Z</time>
      </trkpt>
      <trkpt lat="47.79765" lon="6.62491">
        <ele>478</ele>
        <time>2021-02-26T22:32:28Z</time>
      </trkpt>
      <trkpt lat="47.7972" lon="6.62484">
        <ele>475</ele>
        <time>2021-02-26T22:32:38Z</time>
      </trkpt>
      <trkpt lat="47.79661" lon="6.62499">
        <ele>472</ele>
        <time>2021-02-26T22:32:52Z</time>
      </trkpt>
      <trkpt lat="47.79621" lon="6.62498">
        <ele>472</ele>
        <time>2021-02-26T22:33:01Z</time>
      </trkpt>
      <trkpt lat="47.79544" lon="6.62476">
        <ele>470</ele>
        <time>2021-02-26T22:33:20Z</time>
      </trkpt>
      <trkpt lat="47.79453" lon="6.62472">
        <ele>464</ele>
        <time>2021-02-26T22:33:41Z</time>
      </trkpt>
      <trkpt lat="47.79419" lon="6.62467">
        <ele>461</ele>
        <time>2021-02-26T22:33:49Z</time>
      </trkpt>
      <trkpt lat="47.79396" lon="6.62453">
        <ele>458</ele>
        <time>2021-02-26T22:33:55Z</time>
      </trkpt>
      <trkpt lat="47.79345" lon="6.62447">
        <ele>450</ele>
        <time>2021-02-26T22:34:07Z</time>
      </trkpt>
      <trkpt lat="47.79308" lon="6.62466">
        <ele>444</ele>
        <time>2021-02-26T22:34:16Z</time>
      </trkpt>
      <trkpt lat="47.79265" lon="6.62477">
        <ele>437</ele>
        <time>2021-02-26T22:34:26Z</time>
      </trkpt>
      <trkpt lat="47.79224" lon="6.62376">
        <ele>432</ele>
        <time>2021-02-26T22:34:45Z</time>
      </trkpt>
      <trkpt lat="47.79213" lon="6.62356">
        <ele>430</ele>
        <time>2021-02-26T22:34:49Z</time>
      </trkpt>
      <trkpt lat="47.792" lon="6.6234">
        <ele>428</ele>
        <time>2021-02-26T22:34:53Z</time>
      </trkpt>
      <trkpt lat="47.79188" lon="6.62366">
        <ele>426</ele>
        <time>2021-02-26T22:34:58Z</time>
      </trkpt>
      <trkpt lat="47.79174" lon="6.62381">
        <ele>423</ele>
        <time>2021-02-26T22:35:02Z</time>
      </trkpt>
      <trkpt lat="47.79157" lon="6.62379">
        <ele>421</ele>
        <time>2021-02-26T22:35:06Z</time>
      </trkpt>
      <trkpt lat="47.79137" lon="6.62356">
        <ele>420</ele>
        <time>2021-02-26T22:35:11Z</time>
      </trkpt>
      <trkpt lat="47.79122" lon="6.62353">
        <ele>418</ele>
        <time>2021-02-26T22:35:15Z</time>
      </trkpt>
      <trkpt lat="47.79098" lon="6.62367">
        <ele>415</ele>
        <time>2021-02-26T22:35:21Z</time>
      </trkpt>
      <trkpt lat="47.79086" lon="6.62362">
        <ele>415</ele>
        <time>2021-02-26T22:35:24Z</time>
      </trkpt>
      <trkpt lat="47.7907" lon="6.62347">
        <ele>413</ele>
        <time>2021-02-26T22:35:28Z</time>
      </trkpt>
      <trkpt lat="47.7905" lon="6.62315">
        <ele>414</ele>
        <time>2021-02-26T22:35:35Z</time>
      </trkpt>
      <trkpt lat="47.7903" lon="6.6231">
        <ele>412</ele>
        <time>2021-02-26T22:35:40Z</time>
      </trkpt>
      <trkpt lat="47.79024" lon="6.62287">
        <ele>415</ele>
        <time>2021-02-26T22:35:44Z</time>
      </trkpt>
      <trkpt lat="47.79011" lon="6.62193">
        <ele>425</ele>
        <time>2021-02-26T22:35:59Z</time>
      </trkpt>
      <trkpt lat="47.7901" lon="6.62145">
        <ele>430</ele>
        <time>2021-02-26T22:36:06Z</time>
      </trkpt>
      <trkpt lat="47.79017" lon="6.62113">
        <ele>433</ele>
        <time>2021-02-26T22:36:12Z</time>
      </trkpt>
      <trkpt lat="47.79039" lon="6.62079">
        <ele>437</ele>
        <time>2021-02-26T22:36:19Z</time>
      </trkpt>
      <trkpt lat="47.79057" lon="6.62043">
        <ele>439</ele>
        <time>2021-02-26T22:36:26Z</time>
      </trkpt>
      <trkpt lat="47.79077" lon="6.61945">
        <ele>441</ele>
        <time>2021-02-26T22:36:42Z</time>
      </trkpt>
      <trkpt lat="47.79076" lon="6.61909">
        <ele>441</ele>
        <time>2021-02-26T22:36:48Z</time>
      </trkpt>
      <trkpt lat="47.7907" lon="6.61891">
        <ele>442</ele>
        <time>2021-02-26T22:36:51Z</time>
      </trkpt>
      <trkpt lat="47.79046" lon="6.61853">
        <ele>443</ele>
        <time>2021-02-26T22:36:59Z</time>
      </trkpt>
      <trkpt lat="47.79034" lon="6.61818">
        <ele>445</ele>
        <time>2021-02-26T22:37:05Z</time>
      </trkpt>
      <trkpt lat="47.7903" lon="6.61691">
        <ele>451</ele>
        <time>2021-02-26T22:37:25Z</time>
      </trkpt>
      <trkpt lat="47.79019" lon="6.61637">
        <ele>453</ele>
        <time>2021-02-26T22:37:34Z</time>
      </trkpt>
      <trkpt lat="47.79005" lon="6.61586">
        <ele>454</ele>
        <time>2021-02-26T22:37:43Z</time>
      </trkpt>
      <trkpt lat="47.78981" lon="6.61551">
        <ele>455</ele>
        <time>2021-02-26T22:37:51Z</time>
      </trkpt>
      <trkpt lat="47.78973" lon="6.61527">
        <ele>455</ele>
        <time>2021-02-26T22:37:55Z</time>
      </trkpt>
      <trkpt lat="47.78974" lon="6.61464">
        <ele>455</ele>
        <time>2021-02-26T22:38:05Z</time>
      </trkpt>
      <trkpt lat="47.7897" lon="6.61397">
        <ele>454</ele>
        <time>2021-02-26T22:38:15Z</time>
      </trkpt>
      <trkpt lat="47.78977" lon="6.6136">
        <ele>453</ele>
        <time>2021-02-26T22:38:21Z</time>
      </trkpt>
      <trkpt lat="47.79008" lon="6.61301">
        <ele>451</ele>
        <time>2021-02-26T22:38:33Z</time>
      </trkpt>
      <trkpt lat="47.79022" lon="6.61268">
        <ele>449</ele>
        <time>2021-02-26T22:38:39Z</time>
      </trkpt>
      <trkpt lat="47.79022" lon="6.61237">
        <ele>449</ele>
        <time>2021-02-26T22:38:44Z</time>
      </trkpt>
      <trkpt lat="47.79008" lon="6.61196">
        <ele>451</ele>
        <time>2021-02-26T22:38:51Z</time>
      </trkpt>
      <trkpt lat="47.79014" lon="6.61124">
        <ele>450</ele>
        <time>2021-02-26T22:39:03Z</time>
      </trkpt>
      <trkpt lat="47.79019" lon="6.61111">
        <ele>449</ele>
        <time>2021-02-26T22:39:05Z</time>
      </trkpt>
      <trkpt lat="47.79022" lon="6.61088">
        <ele>449</ele>
        <time>2021-02-26T22:39:09Z</time>
      </trkpt>
      <trkpt lat="47.79016" lon="6.61062">
        <ele>447</ele>
        <time>2021-02-26T22:39:13Z</time>
      </trkpt>
      <trkpt lat="47.79002" lon="6.61022">
        <ele>445</ele>
        <time>2021-02-26T22:39:20Z</time>
      </trkpt>
      <trkpt lat="47.78991" lon="6.61005">
        <ele>444</ele>
        <time>2021-02-26T22:39:24Z</time>
      </trkpt>
      <trkpt lat="47.78962" lon="6.60981">
        <ele>444</ele>
        <time>2021-02-26T22:39:32Z</time>
      </trkpt>
      <trkpt lat="47.78904" lon="6.6095">
        <ele>445</ele>
        <time>2021-02-26T22:39:46Z</time>
      </trkpt>
      <trkpt lat="47.78893" lon="6.60937">
        <ele>444</ele>
        <time>2021-02-26T22:39:49Z</time>
      </trkpt>
      <trkpt lat="47.78873" lon="6.60932">
        <ele>444</ele>
        <time>2021-02-26T22:39:54Z</time>
      </trkpt>
      <trkpt lat="47.78826" lon="6.60896">
        <ele>443</ele>
        <time>2021-02-26T22:40:06Z</time>
      </trkpt>
      <trkpt lat="47.7881" lon="6.6087">
        <ele>442</ele>
        <time>2021-02-26T22:40:12Z</time>
      </trkpt>
      <trkpt lat="47.78799" lon="6.60817">
        <ele>440</ele>
        <time>2021-02-26T22:40:21Z</time>
      </trkpt>
      <trkpt lat="47.78793" lon="6.60813">
        <ele>440</ele>
        <time>2021-02-26T22:40:22Z</time>
      </trkpt>
      <trkpt lat="47.78777" lon="6.60813">
        <ele>439</ele>
        <time>2021-02-26T22:40:26Z</time>
      </trkpt>
      <trkpt lat="47.78747" lon="6.60831">
        <ele>438</ele>
        <time>2021-02-26T22:40:33Z</time>
      </trkpt>
      <trkpt lat="47.78692" lon="6.60818">
        <ele>438</ele>
        <time>2021-02-26T22:40:46Z</time>
      </trkpt>
      <trkpt lat="47.78674" lon="6.60793">
        <ele>437</ele>
        <time>2021-02-26T22:40:52Z</time>
      </trkpt>
      <trkpt lat="47.78605" lon="6.6075">
        <ele>440</ele>
        <time>2021-02-26T22:41:10Z</time>
      </trkpt>
      <trkpt lat="47.78599" lon="6.60726">
        <ele>439</ele>
        <time>2021-02-26T22:41:14Z</time>
      </trkpt>
      <trkpt lat="47.786" lon="6.6068">
        <ele>435</ele>
        <time>2021-02-26T22:41:21Z</time>
      </trkpt>
      <trkpt lat="47.78597" lon="6.60666">
        <ele>434</ele>
        <time>2021-02-26T22:41:23Z</time>
      </trkpt>
      <trkpt lat="47.7858" lon="6.60646">
        <ele>434</ele>
        <time>2021-02-26T22:41:28Z</time>
      </trkpt>
      <trkpt lat="47.78558" lon="6.6063">
        <ele>435</ele>
        <time>2021-02-26T22:41:34Z</time>
      </trkpt>
      <trkpt lat="47.7852" lon="6.60635">
        <ele>437</ele>
        <time>2021-02-26T22:41:43Z</time>
      </trkpt>
      <trkpt lat="47.785" lon="6.60648">
        <ele>439</ele>
        <time>2021-02-26T22:41:48Z</time>
      </trkpt>
      <trkpt lat="47.7848" lon="6.60652">
        <ele>440</ele>
        <time>2021-02-26T22:41:53Z</time>
      </trkpt>
      <trkpt lat="47.78434" lon="6.60626">
        <ele>440</ele>
        <time>2021-02-26T22:42:04Z</time>
      </trkpt>
      <trkpt lat="47.78448" lon="6.6051">
        <ele>430</ele>
        <time>2021-02-26T22:42:23Z</time>
      </trkpt>
      <trkpt lat="47.78451" lon="6.60454">
        <ele>428</ele>
        <time>2021-02-26T22:42:31Z</time>
      </trkpt>
      <trkpt lat="47.78424" lon="6.60411">
        <ele>425</ele>
        <time>2021-02-26T22:42:41Z</time>
      </trkpt>
      <trkpt lat="47.78386" lon="6.604">
        <ele>425</ele>
        <time>2021-02-26T22:42:50Z</time>
      </trkpt>
      <trkpt lat="47.7835" lon="6.60405">
        <ele>425</ele>
        <time>2021-02-26T22:42:58Z</time>
      </trkpt>
      <trkpt lat="47.78319" lon="6.60394">
        <ele>426</ele>
        <time>2021-02-26T22:43:06Z</time>
      </trkpt>
      <trkpt lat="47.78185" lon="6.60371">
        <ele>427</ele>
        <time>2021-02-26T22:43:37Z</time>
      </trkpt>
      <trkpt lat="47.78123" lon="6.60315">
        <ele>424</ele>
        <time>2021-02-26T22:43:54Z</time>
      </trkpt>
      <trkpt lat="47.78079" lon="6.60172">
        <ele>414</ele>
        <time>2021-02-26T22:44:19Z</time>
      </trkpt>
      <trkpt lat="47.78049" lon="6.60124">
        <ele>414</ele>
        <time>2021-02-26T22:44:29Z</time>
      </trkpt>
      <trkpt lat="47.77948" lon="6.59943">
        <ele>407</ele>
        <time>2021-02-26T22:45:06Z</time>
      </trkpt>
      <trkpt lat="47.77918" lon="6.5986">
        <ele>405</ele>
        <time>2021-02-26T22:45:21Z</time>
      </trkpt>
      <trkpt lat="47.77912" lon="6.59831">
        <ele>403</ele>
        <time>2021-02-26T22:45:25Z</time>
      </trkpt>
      <trkpt lat="47.77891" lon="6.59826">
        <ele>404</ele>
        <time>2021-02-26T22:45:30Z</time>
      </trkpt>
      <trkpt lat="47.77833" lon="6.59824">
        <ele>408</ele>
        <time>2021-02-26T22:45:44Z</time>
      </trkpt>
      <trkpt lat="47.7781" lon="6.59811">
        <ele>407</ele>
        <time>2021-02-26T22:45:50Z</time>
      </trkpt>
      <trkpt lat="47.77772" lon="6.59801">
        <ele>407</ele>
        <time>2021-02-26T22:45:59Z</time>
      </trkpt>
      <trkpt lat="47.77706" lon="6.59816">
        <ele>404</ele>
        <time>2021-02-26T22:46:14Z</time>
      </trkpt>
      <trkpt lat="47.77677" lon="6.59812">
        <ele>401</ele>
        <time>2021-02-26T22:46:21Z</time>
      </trkpt>
      <trkpt lat="47.77642" lon="6.59773">
        <ele>398</ele>
        <time>2021-02-26T22:46:31Z</time>
      </trkpt>
      <trkpt lat="47.77632" lon="6.59758">
        <ele>397</ele>
        <time>2021-02-26T22:46:35Z</time>
      </trkpt>
      <trkpt lat="47.77617" lon="6.59749">
        <ele>396</ele>
        <time>2021-02-26T22:46:38Z</time>
      </trkpt>
      <trkpt lat="47.77608" lon="6.59711">
        <ele>395</ele>
        <time>2021-02-26T22:46:45Z</time>
      </trkpt>
      <trkpt lat="47.77574" lon="6.59623">
        <ele>396</ele>
        <time>2021-02-26T22:47:01Z</time>
      </trkpt>
      <trkpt lat="47.77648" lon="6.5952">
        <ele>395</ele>
        <time>2021-02-26T22:47:24Z</time>
      </trkpt>
      <trkpt lat="47.77674" lon="6.59503">
        <ele>393</ele>
        <time>2021-02-26T22:47:31Z</time>
      </trkpt>
      <trkpt lat="47.77686" lon="6.59475">
        <ele>391</ele>
        <time>2021-02-26T22:47:36Z</time>
      </trkpt>
      <trkpt lat="47.77695" lon="6.59421">
        <ele>389</ele>
        <time>2021-02-26T22:47:45Z</time>
      </trkpt>
      <trkpt lat="47.77696" lon="6.59303">
        <ele>387</ele>
        <time>2021-02-26T22:48:03Z</time>
      </trkpt>
      <trkpt lat="47.77707" lon="6.59279">
        <ele>387</ele>
        <time>2021-02-26T22:48:08Z</time>
      </trkpt>
      <trkpt lat="47.77723" lon="6.59273">
        <ele>387</ele>
        <time>2021-02-26T22:48:12Z</time>
      </trkpt>
      <trkpt lat="47.77748" lon="6.59255">
        <ele>385</ele>
        <time>2021-02-26T22:48:18Z</time>
      </trkpt>
      <trkpt lat="47.77766" lon="6.5922">
        <ele>383</ele>
        <time>2021-02-26T22:48:25Z</time>
      </trkpt>
      <trkpt lat="47.77775" lon="6.59149">
        <ele>377</ele>
        <time>2021-02-26T22:48:37Z</time>
      </trkpt>
      <trkpt lat="47.77798" lon="6.59069">
        <ele>369</ele>
        <time>2021-02-26T22:48:50Z</time>
      </trkpt>
      <trkpt lat="47.77796" lon="6.59011">
        <ele>365</ele>
        <time>2021-02-26T22:48:59Z</time>
      </trkpt>
      <trkpt lat="47.77804" lon="6.58873">
        <ele>371</ele>
        <time>2021-02-26T22:49:21Z</time>
      </trkpt>
      <trkpt lat="47.77793" lon="6.58814">
        <ele>373</ele>
        <time>2021-02-26T22:49:31Z</time>
      </trkpt>
      <trkpt lat="47.77798" lon="6.58756">
        <ele>377</ele>
        <time>2021-02-26T22:49:40Z</time>
      </trkpt>
      <trkpt lat="47.77787" lon="6.58708">
        <ele>377</ele>
        <time>2021-02-26T22:49:48Z</time>
      </trkpt>
      <trkpt lat="47.77787" lon="6.5864">
        <ele>378</ele>
        <time>2021-02-26T22:49:59Z</time>
      </trkpt>
      <trkpt lat="47.778" lon="6.58604">
        <ele>380</ele>
        <time>2021-02-26T22:50:05Z</time>
      </trkpt>
      <trkpt lat="47.7782" lon="6.58576">
        <ele>384</ele>
        <time>2021-02-26T22:50:11Z</time>
      </trkpt>
      <trkpt lat="47.77826" lon="6.58446">
        <ele>387</ele>
        <time>2021-02-26T22:50:32Z</time>
      </trkpt>
      <trkpt lat="47.77812" lon="6.58396">
        <ele>384</ele>
        <time>2021-02-26T22:50:40Z</time>
      </trkpt>
      <trkpt lat="47.77815" lon="6.58363">
        <ele>383</ele>
        <time>2021-02-26T22:50:46Z</time>
      </trkpt>
      <trkpt lat="47.77823" lon="6.58336">
        <ele>383</ele>
        <time>2021-02-26T22:50:50Z</time>
      </trkpt>
      <trkpt lat="47.7783" lon="6.58293">
        <ele>383</ele>
        <time>2021-02-26T22:50:57Z</time>
      </trkpt>
      <trkpt lat="47.77857" lon="6.5825">
        <ele>389</ele>
        <time>2021-02-26T22:51:06Z</time>
      </trkpt>
      <trkpt lat="47.77859" lon="6.58237">
        <ele>390</ele>
        <time>2021-02-26T22:51:08Z</time>
      </trkpt>
      <trkpt lat="47.77833" lon="6.58212">
        <ele>384</ele>
        <time>2021-02-26T22:51:16Z</time>
      </trkpt>
      <trkpt lat="47.77773" lon="6.58197">
        <ele>380</ele>
        <time>2021-02-26T22:51:30Z</time>
      </trkpt>
      <trkpt lat="47.77699" lon="6.58186">
        <ele>378</ele>
        <time>2021-02-26T22:51:47Z</time>
      </trkpt>
      <trkpt lat="47.77662" lon="6.58168">
        <ele>378</ele>
        <time>2021-02-26T22:51:56Z</time>
      </trkpt>
      <trkpt lat="47.77651" lon="6.58156">
        <ele>378</ele>
        <time>2021-02-26T22:52:00Z</time>
      </trkpt>
      <trkpt lat="47.77696" lon="6.58057">
        <ele>377</ele>
        <time>2021-02-26T22:52:18Z</time>
      </trkpt>
      <trkpt lat="47.77754" lon="6.57947">
        <ele>376</ele>
        <time>2021-02-26T22:52:40Z</time>
      </trkpt>
      <trkpt lat="47.77802" lon="6.5791">
        <ele>380</ele>
        <time>2021-02-26T22:52:53Z</time>
      </trkpt>
      <trkpt lat="47.77831" lon="6.5788">
        <ele>381</ele>
        <time>2021-02-26T22:53:01Z</time>
      </trkpt>
      <trkpt lat="47.7784" lon="6.57817">
        <ele>380</ele>
        <time>2021-02-26T22:53:11Z</time>
      </trkpt>
      <trkpt lat="47.77833" lon="6.57764">
        <ele>377</ele>
        <time>2021-02-26T22:53:20Z</time>
      </trkpt>
      <trkpt lat="47.77834" lon="6.57717">
        <ele>377</ele>
        <time>2021-02-26T22:53:27Z</time>
      </trkpt>
      <trkpt lat="47.77845" lon="6.57678">
        <ele>379</ele>
        <time>2021-02-26T22:53:34Z</time>
      </trkpt>
      <trkpt lat="47.77895" lon="6.57641">
        <ele>382</ele>
        <time>2021-02-26T22:53:47Z</time>
      </trkpt>
      <trkpt lat="47.77932" lon="6.57608">
        <ele>383</ele>
        <time>2021-02-26T22:53:57Z</time>
      </trkpt>
      <trkpt lat="47.77971" lon="6.57567">
        <ele>381</ele>
        <time>2021-02-26T22:54:08Z</time>
      </trkpt>
      <trkpt lat="47.78009" lon="6.57548">
        <ele>381</ele>
        <time>2021-02-26T22:54:17Z</time>
      </trkpt>
      <trkpt lat="47.78072" lon="6.57458">
        <ele>380</ele>
        <time>2021-02-26T22:54:38Z</time>
      </trkpt>
      <trkpt lat="47.78101" lon="6.57433">
        <ele>379</ele>
        <time>2021-02-26T22:54:46Z</time>
      </trkpt>
      <trkpt lat="47.78115" lon="6.57363">
        <ele>377</ele>
        <time>2021-02-26T22:54:57Z</time>
      </trkpt>
      <trkpt lat="47.78127" lon="6.57356">
        <ele>376</ele>
        <time>2021-02-26T22:55:00Z</time>
      </trkpt>
      <trkpt lat="47.78179" lon="6.5736">
        <ele>377</ele>
        <time>2021-02-26T22:55:12Z</time>
      </trkpt>
      <trkpt lat="47.78193" lon="6.5735">
        <ele>376</ele>
        <time>2021-02-26T22:55:16Z</time>
      </trkpt>
      <trkpt lat="47.78209" lon="6.57375">
        <ele>378</ele>
        <time>2021-02-26T22:55:21Z</time>
      </trkpt>
      <trkpt lat="47.78225" lon="6.57417">
        <ele>379</ele>
        <time>2021-02-26T22:55:29Z</time>
      </trkpt>
      <trkpt lat="47.78222" lon="6.57497">
        <ele>383</ele>
        <time>2021-02-26T22:55:41Z</time>
      </trkpt>
      <trkpt lat="47.78225" lon="6.57517">
        <ele>385</ele>
        <time>2021-02-26T22:55:45Z</time>
      </trkpt>
      <trkpt lat="47.78241" lon="6.57534">
        <ele>386</ele>
        <time>2021-02-26T22:55:49Z</time>
      </trkpt>
      <trkpt lat="47.78256" lon="6.57535">
        <ele>387</ele>
        <time>2021-02-26T22:55:53Z</time>
      </trkpt>
      <trkpt lat="47.7827" lon="6.57544">
        <ele>388</ele>
        <time>2021-02-26T22:55:56Z</time>
      </trkpt>
      <trkpt lat="47.78278" lon="6.57557">
        <ele>389</ele>
        <time>2021-02-26T22:55:59Z</time>
      </trkpt>
      <trkpt lat="47.78291" lon="6.57567">
        <ele>390</ele>
        <time>2021-02-26T22:56:02Z</time>
      </trkpt>
      <trkpt lat="47.78327" lon="6.57566">
        <ele>391</ele>
        <time>2021-02-26T22:56:11Z</time>
      </trkpt>
      <trkpt lat="47.78339" lon="6.57552">
        <ele>390</ele>
        <time>2021-02-26T22:56:14Z</time>
      </trkpt>
      <trkpt lat="47.78353" lon="6.5755">
        <ele>389</ele>
        <time>2021-02-26T22:56:18Z</time>
      </trkpt>
      <trkpt lat="47.78363" lon="6.57556">
        <ele>389</ele>
        <time>2021-02-26T22:56:20Z</time>
      </trkpt>
      <trkpt lat="47.78375" lon="6.57576">
        <ele>390</ele>
        <time>2021-02-26T22:56:24Z</time>
      </trkpt>
      <trkpt lat="47.78386" lon="6.57603">
        <ele>391</ele>
        <time>2021-02-26T22:56:29Z</time>
      </trkpt>
      <trkpt lat="47.78397" lon="6.57614">
        <ele>392</ele>
        <time>2021-02-26T22:56:32Z</time>
      </trkpt>
      <trkpt lat="47.78416" lon="6.57615">
        <ele>391</ele>
        <time>2021-02-26T22:56:37Z</time>
      </trkpt>
      <trkpt lat="47.78466" lon="6.57574">
        <ele>389</ele>
        <time>2021-02-26T22:56:50Z</time>
      </trkpt>
      <trkpt lat="47.78516" lon="6.57567">
        <ele>391</ele>
        <time>2021-02-26T22:57:02Z</time>
      </trkpt>
      <trkpt lat="47.7859" lon="6.57566">
        <ele>395</ele>
        <time>2021-02-26T22:57:19Z</time>
      </trkpt>
      <trkpt lat="47.7862" lon="6.57557">
        <ele>396</ele>
        <time>2021-02-26T22:57:26Z</time>
      </trkpt>
      <trkpt lat="47.78656" lon="6.57558">
        <ele>397</ele>
        <time>2021-02-26T22:57:35Z</time>
      </trkpt>
      <trkpt lat="47.78676" lon="6.57548">
        <ele>397</ele>
        <time>2021-02-26T22:57:40Z</time>
      </trkpt>
      <trkpt lat="47.78699" lon="6.57515">
        <ele>396</ele>
        <time>2021-02-26T22:57:47Z</time>
      </trkpt>
      <trkpt lat="47.78701" lon="6.57437">
        <ele>394</ele>
        <time>2021-02-26T22:57:59Z</time>
      </trkpt>
      <trkpt lat="47.78691" lon="6.57289">
        <ele>387</ele>
        <time>2021-02-26T22:58:23Z</time>
      </trkpt>
      <trkpt lat="47.78698" lon="6.57268">
        <ele>387</ele>
        <time>2021-02-26T22:58:26Z</time>
      </trkpt>
      <trkpt lat="47.78717" lon="6.57239">
        <ele>389</ele>
        <time>2021-02-26T22:58:33Z</time>
      </trkpt>
      <trkpt lat="47.78729" lon="6.57233">
        <ele>390</ele>
        <time>2021-02-26T22:58:36Z</time>
      </trkpt>
      <trkpt lat="47.78747" lon="6.57225">
        <ele>391</ele>
        <time>2021-02-26T22:58:40Z</time>
      </trkpt>
      <trkpt lat="47.78795" lon="6.5724">
        <ele>393</ele>
        <time>2021-02-26T22:58:52Z</time>
      </trkpt>
      <trkpt lat="47.78806" lon="6.5724">
        <ele>393</ele>
        <time>2021-02-26T22:58:54Z</time>
      </trkpt>
      <trkpt lat="47.7885" lon="6.57281">
        <ele>393</ele>
        <time>2021-02-26T22:59:06Z</time>
      </trkpt>
      <trkpt lat="47.78885" lon="6.57286">
        <ele>395</ele>
        <time>2021-02-26T22:59:14Z</time>
      </trkpt>
      <trkpt lat="47.78906" lon="6.57265">
        <ele>398</ele>
        <time>2021-02-26T22:59:20Z</time>
      </trkpt>
      <trkpt lat="47.78932" lon="6.57253">
        <ele>400</ele>
        <time>2021-02-26T22:59:27Z</time>
      </trkpt>
      <trkpt lat="47.78965" lon="6.57273">
        <ele>400</ele>
        <time>2021-02-26T22:59:35Z</time>
      </trkpt>
      <trkpt lat="47.79031" lon="6.57253">
        <ele>402</ele>
        <time>2021-02-26T22:59:51Z</time>
      </trkpt>
      <trkpt lat="47.79069" lon="6.57232">
        <ele>403</ele>
        <time>2021-02-26T23:00:00Z</time>
      </trkpt>
      <trkpt lat="47.79122" lon="6.57336">
        <ele>405</ele>
        <time>2021-02-26T23:00:21Z</time>
      </trkpt>
      <trkpt lat="47.79169" lon="6.57327">
        <ele>407</ele>
        <time>2021-02-26T23:00:32Z</time>
      </trkpt>
      <trkpt lat="47.79203" lon="6.57311">
        <ele>409</ele>
        <time>2021-02-26T23:00:40Z</time>
      </trkpt>
      <trkpt lat="47.79222" lon="6.57266">
        <ele>408</ele>
        <time>2021-02-26T23:00:48Z</time>
      </trkpt>
      <trkpt lat="47.79268" lon="6.5723">
        <ele>407</ele>
        <time>2021-02-26T23:01:01Z</time>
      </trkpt>
      <trkpt lat="47.79295" lon="6.572">
        <ele>407</ele>
        <time>2021-02-26T23:01:08Z</time>
      </trkpt>
      <trkpt lat="47.79358" lon="6.57144">
        <ele>412</ele>
        <time>2021-02-26T23:01:26Z</time>
      </trkpt>
      <trkpt lat="47.79384" lon="6.57134">
        <ele>413</ele>
        <time>2021-02-26T23:01:32Z</time>
      </trkpt>
      <trkpt lat="47.79403" lon="6.57144">
        <ele>413</ele>
        <time>2021-02-26T23:01:37Z</time>
      </trkpt>
      <trkpt lat="47.79446" lon="6.57059">
        <ele>420</ele>
        <time>2021-02-26T23:01:53Z</time>
      </trkpt>
      <trkpt lat="47.79458" lon="6.57046">
        <ele>421</ele>
        <time>2021-02-26T23:01:57Z</time>
      </trkpt>
      <trkpt lat="47.79454" lon="6.56921">
        <ele>431</ele>
        <time>2021-02-26T23:02:16Z</time>
      </trkpt>
      <trkpt lat="47.79536" lon="6.56851">
        <ele>435</ele>
        <time>2021-02-26T23:02:38Z</time>
      </trkpt>
      <trkpt lat="47.79539" lon="6.56876">
        <ele>435</ele>
        <time>2021-02-26T23:02:42Z</time>
      </trkpt>
      <trkpt lat="47.79579" lon="6.56854">
        <ele>437</ele>
        <time>2021-02-26T23:02:52Z</time>
      </trkpt>
      <trkpt lat="47.79614" lon="6.56822">
        <ele>435</ele>
        <time>2021-02-26T23:03:02Z</time>
      </trkpt>
      <trkpt lat="47.79628" lon="6.56758">
        <ele>436</ele>
        <time>2021-02-26T23:03:13Z</time>
      </trkpt>
      <trkpt lat="47.79607" lon="6.56737">
        <ele>438</ele>
        <time>2021-02-26T23:03:18Z</time>
      </trkpt>
      <trkpt lat="47.79509" lon="6.56727">
        <ele>438</ele>
        <time>2021-02-26T23:03:41Z</time>
      </trkpt>
      <trkpt lat="47.79453" lon="6.5667">
        <ele>442</ele>
        <time>2021-02-26T23:03:57Z</time>
      </trkpt>
      <trkpt lat="47.79418" lon="6.56618">
        <ele>444</ele>
        <time>2021-02-26T23:04:09Z</time>
      </trkpt>
      <trkpt lat="47.79396" lon="6.56555">
        <ele>448</ele>
        <time>2021-02-26T23:04:20Z</time>
      </trkpt>
      <trkpt lat="47.79412" lon="6.56484">
        <ele>450</ele>
        <time>2021-02-26T23:04:32Z</time>
      </trkpt>
      <trkpt lat="47.79419" lon="6.5642">
        <ele>451</ele>
        <time>2021-02-26T23:04:42Z</time>
      </trkpt>
      <trkpt lat="47.79352" lon="6.56337">
        <ele>454</ele>
        <time>2021-02-26T23:05:02Z</time>
      </trkpt>
      <trkpt lat="47.79254" lon="6.56306">
        <ele>457</ele>
        <time>2021-02-26T23:05:26Z</time>
      </trkpt>
      <trkpt lat="47.7923" lon="6.56233">
        <ele>457</ele>
        <time>2021-02-26T23:05:38Z</time>
      </trkpt>
    </trkseg>
  </trk>
</gpx>